<?xml version="1.0" encoding="UTF-8" standalone="no" ?>
<gpx xmlns="http://www.topografix.com/GPX/1/1" xmlns:xsi="http://www.w3.org/2001/XMLSchema-instance" xsi:schemaLocation="http://www.topografix.com/GPX/1/1 http://www.topografix.com/GPX/1/1/gpx.xsd" version="1.1" creator="VisuGPX - https://www.visugpx.com">
  <metadata>
    <name>Najac E4</name>
    <desc><![CDATA[Rando Brie Najac 2011
hub03grmicnaj]]></desc>
  </metadata>
  <trk>
    <name><![CDATA[Toaster Course]]></name>
    <trkseg>
      <trkpt lat="46.06539" lon="3.55675">
        <ele>427</ele>
        <time>2011-08-30T00:00:00Z</time>
      </trkpt>
      <trkpt lat="46.06536" lon="3.55688">
        <ele>426</ele>
        <time>2011-08-30T00:00:01Z</time>
      </trkpt>
      <trkpt lat="46.06522" lon="3.55682">
        <ele>426</ele>
        <time>2011-08-30T00:00:03Z</time>
      </trkpt>
      <trkpt lat="46.06514" lon="3.55684">
        <ele>425</ele>
        <time>2011-08-30T00:00:04Z</time>
      </trkpt>
      <trkpt lat="46.06414" lon="3.55735">
        <ele>422</ele>
        <time>2011-08-30T00:00:18Z</time>
      </trkpt>
      <trkpt lat="46.06405" lon="3.55724">
        <ele>421</ele>
        <time>2011-08-30T00:00:20Z</time>
      </trkpt>
      <trkpt lat="46.06392" lon="3.55656">
        <ele>421</ele>
        <time>2011-08-30T00:00:26Z</time>
      </trkpt>
      <trkpt lat="46.06353" lon="3.55564">
        <ele>420</ele>
        <time>2011-08-30T00:00:36Z</time>
      </trkpt>
      <trkpt lat="46.06213" lon="3.55418">
        <ele>424</ele>
        <time>2011-08-30T00:01:09Z</time>
      </trkpt>
      <trkpt lat="46.06153" lon="3.55326">
        <ele>437</ele>
        <time>2011-08-30T00:01:53Z</time>
      </trkpt>
      <trkpt lat="46.06127" lon="3.55268">
        <ele>445</ele>
        <time>2011-08-30T00:02:17Z</time>
      </trkpt>
      <trkpt lat="46.06061" lon="3.55177">
        <ele>456</ele>
        <time>2011-08-30T00:02:56Z</time>
      </trkpt>
      <trkpt lat="46.06041" lon="3.55128">
        <ele>459</ele>
        <time>2011-08-30T00:03:10Z</time>
      </trkpt>
      <trkpt lat="46.06016" lon="3.55023">
        <ele>467</ele>
        <time>2011-08-30T00:03:38Z</time>
      </trkpt>
      <trkpt lat="46.06001" lon="3.54982">
        <ele>471</ele>
        <time>2011-08-30T00:03:52Z</time>
      </trkpt>
      <trkpt lat="46.05994" lon="3.54973">
        <ele>472</ele>
        <time>2011-08-30T00:03:56Z</time>
      </trkpt>
      <trkpt lat="46.05976" lon="3.54964">
        <ele>474</ele>
        <time>2011-08-30T00:04:04Z</time>
      </trkpt>
      <trkpt lat="46.05918" lon="3.54948">
        <ele>482</ele>
        <time>2011-08-30T00:04:30Z</time>
      </trkpt>
      <trkpt lat="46.05883" lon="3.54944">
        <ele>485</ele>
        <time>2011-08-30T00:04:43Z</time>
      </trkpt>
      <trkpt lat="46.05844" lon="3.54928">
        <ele>489</ele>
        <time>2011-08-30T00:04:59Z</time>
      </trkpt>
      <trkpt lat="46.05829" lon="3.54911">
        <ele>492</ele>
        <time>2011-08-30T00:05:06Z</time>
      </trkpt>
      <trkpt lat="46.05809" lon="3.5487">
        <ele>494</ele>
        <time>2011-08-30T00:05:16Z</time>
      </trkpt>
      <trkpt lat="46.05779" lon="3.54789">
        <ele>498</ele>
        <time>2011-08-30T00:05:34Z</time>
      </trkpt>
      <trkpt lat="46.0579" lon="3.54732">
        <ele>498</ele>
        <time>2011-08-30T00:05:39Z</time>
      </trkpt>
      <trkpt lat="46.05767" lon="3.54675">
        <ele>498</ele>
        <time>2011-08-30T00:05:46Z</time>
      </trkpt>
      <trkpt lat="46.05763" lon="3.54648">
        <ele>498</ele>
        <time>2011-08-30T00:05:48Z</time>
      </trkpt>
      <trkpt lat="46.0576" lon="3.54608">
        <ele>496</ele>
        <time>2011-08-30T00:05:52Z</time>
      </trkpt>
      <trkpt lat="46.05762" lon="3.54587">
        <ele>495</ele>
        <time>2011-08-30T00:05:54Z</time>
      </trkpt>
      <trkpt lat="46.05766" lon="3.54571">
        <ele>494</ele>
        <time>2011-08-30T00:05:55Z</time>
      </trkpt>
      <trkpt lat="46.05785" lon="3.54534">
        <ele>492</ele>
        <time>2011-08-30T00:06:00Z</time>
      </trkpt>
      <trkpt lat="46.05793" lon="3.54493">
        <ele>490</ele>
        <time>2011-08-30T00:06:04Z</time>
      </trkpt>
      <trkpt lat="46.05791" lon="3.5447">
        <ele>489</ele>
        <time>2011-08-30T00:06:06Z</time>
      </trkpt>
      <trkpt lat="46.05773" lon="3.544">
        <ele>487</ele>
        <time>2011-08-30T00:06:13Z</time>
      </trkpt>
      <trkpt lat="46.05772" lon="3.54307">
        <ele>486</ele>
        <time>2011-08-30T00:06:21Z</time>
      </trkpt>
      <trkpt lat="46.05765" lon="3.5424">
        <ele>485</ele>
        <time>2011-08-30T00:06:28Z</time>
      </trkpt>
      <trkpt lat="46.05754" lon="3.54202">
        <ele>485</ele>
        <time>2011-08-30T00:06:31Z</time>
      </trkpt>
      <trkpt lat="46.05738" lon="3.5417">
        <ele>485</ele>
        <time>2011-08-30T00:06:35Z</time>
      </trkpt>
      <trkpt lat="46.05635" lon="3.54042">
        <ele>486</ele>
        <time>2011-08-30T00:06:56Z</time>
      </trkpt>
      <trkpt lat="46.05594" lon="3.54026">
        <ele>489</ele>
        <time>2011-08-30T00:07:09Z</time>
      </trkpt>
      <trkpt lat="46.05556" lon="3.5402">
        <ele>492</ele>
        <time>2011-08-30T00:07:21Z</time>
      </trkpt>
      <trkpt lat="46.05543" lon="3.54024">
        <ele>493</ele>
        <time>2011-08-30T00:07:25Z</time>
      </trkpt>
      <trkpt lat="46.05517" lon="3.54048">
        <ele>493</ele>
        <time>2011-08-30T00:07:31Z</time>
      </trkpt>
      <trkpt lat="46.05506" lon="3.54051">
        <ele>494</ele>
        <time>2011-08-30T00:07:33Z</time>
      </trkpt>
      <trkpt lat="46.05492" lon="3.54043">
        <ele>494</ele>
        <time>2011-08-30T00:07:36Z</time>
      </trkpt>
      <trkpt lat="46.05483" lon="3.54018">
        <ele>495</ele>
        <time>2011-08-30T00:07:40Z</time>
      </trkpt>
      <trkpt lat="46.05483" lon="3.54005">
        <ele>495</ele>
        <time>2011-08-30T00:07:42Z</time>
      </trkpt>
      <trkpt lat="46.05489" lon="3.53986">
        <ele>495</ele>
        <time>2011-08-30T00:07:45Z</time>
      </trkpt>
      <trkpt lat="46.05517" lon="3.53918">
        <ele>497</ele>
        <time>2011-08-30T00:07:56Z</time>
      </trkpt>
      <trkpt lat="46.05522" lon="3.53884">
        <ele>498</ele>
        <time>2011-08-30T00:08:01Z</time>
      </trkpt>
      <trkpt lat="46.0551" lon="3.53864">
        <ele>499</ele>
        <time>2011-08-30T00:08:08Z</time>
      </trkpt>
      <trkpt lat="46.05483" lon="3.53843">
        <ele>502</ele>
        <time>2011-08-30T00:08:19Z</time>
      </trkpt>
      <trkpt lat="46.05475" lon="3.53831">
        <ele>503</ele>
        <time>2011-08-30T00:08:23Z</time>
      </trkpt>
      <trkpt lat="46.05464" lon="3.53797">
        <ele>506</ele>
        <time>2011-08-30T00:08:32Z</time>
      </trkpt>
      <trkpt lat="46.05457" lon="3.53722">
        <ele>511</ele>
        <time>2011-08-30T00:08:51Z</time>
      </trkpt>
      <trkpt lat="46.05455" lon="3.53649">
        <ele>513</ele>
        <time>2011-08-30T00:09:04Z</time>
      </trkpt>
      <trkpt lat="46.05455" lon="3.53628">
        <ele>514</ele>
        <time>2011-08-30T00:09:07Z</time>
      </trkpt>
      <trkpt lat="46.05462" lon="3.53607">
        <ele>515</ele>
        <time>2011-08-30T00:09:12Z</time>
      </trkpt>
      <trkpt lat="46.05475" lon="3.53593">
        <ele>516</ele>
        <time>2011-08-30T00:09:16Z</time>
      </trkpt>
      <trkpt lat="46.0552" lon="3.53593">
        <ele>516</ele>
        <time>2011-08-30T00:09:22Z</time>
      </trkpt>
      <trkpt lat="46.05529" lon="3.53584">
        <ele>516</ele>
        <time>2011-08-30T00:09:23Z</time>
      </trkpt>
      <trkpt lat="46.05548" lon="3.53543">
        <ele>516</ele>
        <time>2011-08-30T00:09:28Z</time>
      </trkpt>
      <trkpt lat="46.05558" lon="3.53537">
        <ele>516</ele>
        <time>2011-08-30T00:09:29Z</time>
      </trkpt>
      <trkpt lat="46.05582" lon="3.53539">
        <ele>517</ele>
        <time>2011-08-30T00:09:35Z</time>
      </trkpt>
      <trkpt lat="46.05597" lon="3.53532">
        <ele>517</ele>
        <time>2011-08-30T00:09:39Z</time>
      </trkpt>
      <trkpt lat="46.05626" lon="3.535">
        <ele>519</ele>
        <time>2011-08-30T00:09:48Z</time>
      </trkpt>
      <trkpt lat="46.05671" lon="3.5347">
        <ele>522</ele>
        <time>2011-08-30T00:10:01Z</time>
      </trkpt>
      <trkpt lat="46.05763" lon="3.53374">
        <ele>522</ele>
        <time>2011-08-30T00:10:16Z</time>
      </trkpt>
      <trkpt lat="46.05799" lon="3.53355">
        <ele>522</ele>
        <time>2011-08-30T00:10:21Z</time>
      </trkpt>
      <trkpt lat="46.05871" lon="3.53225">
        <ele>522</ele>
        <time>2011-08-30T00:10:36Z</time>
      </trkpt>
      <trkpt lat="46.05878" lon="3.53204">
        <ele>521</ele>
        <time>2011-08-30T00:10:38Z</time>
      </trkpt>
      <trkpt lat="46.05882" lon="3.53168">
        <ele>521</ele>
        <time>2011-08-30T00:10:42Z</time>
      </trkpt>
      <trkpt lat="46.05869" lon="3.53106">
        <ele>520</ele>
        <time>2011-08-30T00:10:48Z</time>
      </trkpt>
      <trkpt lat="46.05869" lon="3.53012">
        <ele>520</ele>
        <time>2011-08-30T00:10:56Z</time>
      </trkpt>
      <trkpt lat="46.05865" lon="3.52949">
        <ele>518</ele>
        <time>2011-08-30T00:11:02Z</time>
      </trkpt>
      <trkpt lat="46.05867" lon="3.52857">
        <ele>517</ele>
        <time>2011-08-30T00:11:11Z</time>
      </trkpt>
      <trkpt lat="46.05855" lon="3.5277">
        <ele>515</ele>
        <time>2011-08-30T00:11:19Z</time>
      </trkpt>
      <trkpt lat="46.05856" lon="3.52729">
        <ele>515</ele>
        <time>2011-08-30T00:11:23Z</time>
      </trkpt>
      <trkpt lat="46.05867" lon="3.52664">
        <ele>514</ele>
        <time>2011-08-30T00:11:29Z</time>
      </trkpt>
      <trkpt lat="46.05872" lon="3.52581">
        <ele>512</ele>
        <time>2011-08-30T00:11:37Z</time>
      </trkpt>
      <trkpt lat="46.05914" lon="3.52492">
        <ele>510</ele>
        <time>2011-08-30T00:11:47Z</time>
      </trkpt>
      <trkpt lat="46.0593" lon="3.52438">
        <ele>508</ele>
        <time>2011-08-30T00:11:52Z</time>
      </trkpt>
      <trkpt lat="46.05963" lon="3.52189">
        <ele>500</ele>
        <time>2011-08-30T00:12:16Z</time>
      </trkpt>
      <trkpt lat="46.05983" lon="3.52121">
        <ele>496</ele>
        <time>2011-08-30T00:12:23Z</time>
      </trkpt>
      <trkpt lat="46.05988" lon="3.5209">
        <ele>495</ele>
        <time>2011-08-30T00:12:26Z</time>
      </trkpt>
      <trkpt lat="46.05986" lon="3.52068">
        <ele>494</ele>
        <time>2011-08-30T00:12:28Z</time>
      </trkpt>
      <trkpt lat="46.05921" lon="3.51903">
        <ele>487</ele>
        <time>2011-08-30T00:12:45Z</time>
      </trkpt>
      <trkpt lat="46.05917" lon="3.5187">
        <ele>485</ele>
        <time>2011-08-30T00:12:48Z</time>
      </trkpt>
      <trkpt lat="46.05923" lon="3.51852">
        <ele>485</ele>
        <time>2011-08-30T00:12:50Z</time>
      </trkpt>
      <trkpt lat="46.05931" lon="3.51845">
        <ele>484</ele>
        <time>2011-08-30T00:12:51Z</time>
      </trkpt>
      <trkpt lat="46.05968" lon="3.51844">
        <ele>482</ele>
        <time>2011-08-30T00:12:56Z</time>
      </trkpt>
      <trkpt lat="46.0599" lon="3.51833">
        <ele>481</ele>
        <time>2011-08-30T00:12:59Z</time>
      </trkpt>
      <trkpt lat="46.05998" lon="3.51817">
        <ele>481</ele>
        <time>2011-08-30T00:13:01Z</time>
      </trkpt>
      <trkpt lat="46.06006" lon="3.51784">
        <ele>480</ele>
        <time>2011-08-30T00:13:05Z</time>
      </trkpt>
      <trkpt lat="46.06012" lon="3.51772">
        <ele>480</ele>
        <time>2011-08-30T00:13:06Z</time>
      </trkpt>
      <trkpt lat="46.06038" lon="3.51749">
        <ele>479</ele>
        <time>2011-08-30T00:13:10Z</time>
      </trkpt>
      <trkpt lat="46.06052" lon="3.51726">
        <ele>478</ele>
        <time>2011-08-30T00:13:13Z</time>
      </trkpt>
      <trkpt lat="46.06058" lon="3.51701">
        <ele>478</ele>
        <time>2011-08-30T00:13:15Z</time>
      </trkpt>
      <trkpt lat="46.06061" lon="3.5165">
        <ele>481</ele>
        <time>2011-08-30T00:13:27Z</time>
      </trkpt>
      <trkpt lat="46.06061" lon="3.5165">
        <ele>481</ele>
        <time>2011-08-30T00:13:28Z</time>
      </trkpt>
      <trkpt lat="46.06063" lon="3.51592">
        <ele>486</ele>
        <time>2011-08-30T00:13:46Z</time>
      </trkpt>
      <trkpt lat="46.06056" lon="3.51503">
        <ele>494</ele>
        <time>2011-08-30T00:14:13Z</time>
      </trkpt>
      <trkpt lat="46.0605" lon="3.51492">
        <ele>494</ele>
        <time>2011-08-30T00:14:15Z</time>
      </trkpt>
      <trkpt lat="46.06044" lon="3.51458">
        <ele>495</ele>
        <time>2011-08-30T00:14:21Z</time>
      </trkpt>
      <trkpt lat="46.06124" lon="3.5135">
        <ele>500</ele>
        <time>2011-08-30T00:14:47Z</time>
      </trkpt>
      <trkpt lat="46.06172" lon="3.51273">
        <ele>499</ele>
        <time>2011-08-30T00:14:56Z</time>
      </trkpt>
      <trkpt lat="46.06178" lon="3.51255">
        <ele>498</ele>
        <time>2011-08-30T00:14:58Z</time>
      </trkpt>
      <trkpt lat="46.06145" lon="3.51174">
        <ele>498</ele>
        <time>2011-08-30T00:15:07Z</time>
      </trkpt>
      <trkpt lat="46.0613" lon="3.51082">
        <ele>493</ele>
        <time>2011-08-30T00:15:16Z</time>
      </trkpt>
      <trkpt lat="46.06072" lon="3.51078">
        <ele>490</ele>
        <time>2011-08-30T00:15:23Z</time>
      </trkpt>
      <trkpt lat="46.06042" lon="3.5109">
        <ele>490</ele>
        <time>2011-08-30T00:15:27Z</time>
      </trkpt>
      <trkpt lat="46.06001" lon="3.51123">
        <ele>490</ele>
        <time>2011-08-30T00:15:34Z</time>
      </trkpt>
      <trkpt lat="46.05974" lon="3.51118">
        <ele>490</ele>
        <time>2011-08-30T00:15:37Z</time>
      </trkpt>
      <trkpt lat="46.05957" lon="3.51093">
        <ele>487</ele>
        <time>2011-08-30T00:15:41Z</time>
      </trkpt>
      <trkpt lat="46.05946" lon="3.51021">
        <ele>483</ele>
        <time>2011-08-30T00:15:47Z</time>
      </trkpt>
      <trkpt lat="46.05928" lon="3.50993">
        <ele>481</ele>
        <time>2011-08-30T00:15:51Z</time>
      </trkpt>
      <trkpt lat="46.05898" lon="3.50981">
        <ele>479</ele>
        <time>2011-08-30T00:15:55Z</time>
      </trkpt>
      <trkpt lat="46.05844" lon="3.50986">
        <ele>477</ele>
        <time>2011-08-30T00:16:02Z</time>
      </trkpt>
      <trkpt lat="46.05816" lon="3.50969">
        <ele>476</ele>
        <time>2011-08-30T00:16:06Z</time>
      </trkpt>
      <trkpt lat="46.05796" lon="3.50934">
        <ele>473</ele>
        <time>2011-08-30T00:16:11Z</time>
      </trkpt>
      <trkpt lat="46.05754" lon="3.50809">
        <ele>466</ele>
        <time>2011-08-30T00:16:24Z</time>
      </trkpt>
      <trkpt lat="46.05718" lon="3.50726">
        <ele>464</ele>
        <time>2011-08-30T00:16:33Z</time>
      </trkpt>
      <trkpt lat="46.05652" lon="3.50641">
        <ele>463</ele>
        <time>2011-08-30T00:16:44Z</time>
      </trkpt>
      <trkpt lat="46.05608" lon="3.50597">
        <ele>460</ele>
        <time>2011-08-30T00:16:52Z</time>
      </trkpt>
      <trkpt lat="46.05575" lon="3.50571">
        <ele>458</ele>
        <time>2011-08-30T00:16:57Z</time>
      </trkpt>
      <trkpt lat="46.05548" lon="3.50566">
        <ele>456</ele>
        <time>2011-08-30T00:17:00Z</time>
      </trkpt>
      <trkpt lat="46.05486" lon="3.50598">
        <ele>454</ele>
        <time>2011-08-30T00:17:09Z</time>
      </trkpt>
      <trkpt lat="46.05376" lon="3.50637">
        <ele>451</ele>
        <time>2011-08-30T00:17:24Z</time>
      </trkpt>
      <trkpt lat="46.05359" lon="3.50639">
        <ele>451</ele>
        <time>2011-08-30T00:17:26Z</time>
      </trkpt>
      <trkpt lat="46.05338" lon="3.50628">
        <ele>451</ele>
        <time>2011-08-30T00:17:29Z</time>
      </trkpt>
      <trkpt lat="46.05329" lon="3.50604">
        <ele>451</ele>
        <time>2011-08-30T00:17:32Z</time>
      </trkpt>
      <trkpt lat="46.05327" lon="3.50531">
        <ele>451</ele>
        <time>2011-08-30T00:17:39Z</time>
      </trkpt>
      <trkpt lat="46.05334" lon="3.50502">
        <ele>451</ele>
        <time>2011-08-30T00:17:42Z</time>
      </trkpt>
      <trkpt lat="46.05352" lon="3.50458">
        <ele>446</ele>
        <time>2011-08-30T00:17:46Z</time>
      </trkpt>
      <trkpt lat="46.05357" lon="3.50433">
        <ele>444</ele>
        <time>2011-08-30T00:17:49Z</time>
      </trkpt>
      <trkpt lat="46.05368" lon="3.50334">
        <ele>437</ele>
        <time>2011-08-30T00:17:58Z</time>
      </trkpt>
      <trkpt lat="46.0537" lon="3.5026">
        <ele>433</ele>
        <time>2011-08-30T00:18:05Z</time>
      </trkpt>
      <trkpt lat="46.05381" lon="3.50198">
        <ele>431</ele>
        <time>2011-08-30T00:18:11Z</time>
      </trkpt>
      <trkpt lat="46.05381" lon="3.50167">
        <ele>430</ele>
        <time>2011-08-30T00:18:14Z</time>
      </trkpt>
      <trkpt lat="46.05373" lon="3.50152">
        <ele>429</ele>
        <time>2011-08-30T00:18:15Z</time>
      </trkpt>
      <trkpt lat="46.05361" lon="3.50142">
        <ele>428</ele>
        <time>2011-08-30T00:18:17Z</time>
      </trkpt>
      <trkpt lat="46.0526" lon="3.50115">
        <ele>424</ele>
        <time>2011-08-30T00:18:31Z</time>
      </trkpt>
      <trkpt lat="46.05239" lon="3.50097">
        <ele>421</ele>
        <time>2011-08-30T00:18:34Z</time>
      </trkpt>
      <trkpt lat="46.05211" lon="3.50057">
        <ele>418</ele>
        <time>2011-08-30T00:18:40Z</time>
      </trkpt>
      <trkpt lat="46.05191" lon="3.5004">
        <ele>416</ele>
        <time>2011-08-30T00:18:43Z</time>
      </trkpt>
      <trkpt lat="46.05173" lon="3.50035">
        <ele>415</ele>
        <time>2011-08-30T00:18:45Z</time>
      </trkpt>
      <trkpt lat="46.05154" lon="3.5004">
        <ele>415</ele>
        <time>2011-08-30T00:18:49Z</time>
      </trkpt>
      <trkpt lat="46.05088" lon="3.50093">
        <ele>417</ele>
        <time>2011-08-30T00:19:03Z</time>
      </trkpt>
      <trkpt lat="46.05073" lon="3.50097">
        <ele>415</ele>
        <time>2011-08-30T00:19:05Z</time>
      </trkpt>
      <trkpt lat="46.0506" lon="3.50086">
        <ele>414</ele>
        <time>2011-08-30T00:19:07Z</time>
      </trkpt>
      <trkpt lat="46.05038" lon="3.50037">
        <ele>410</ele>
        <time>2011-08-30T00:19:12Z</time>
      </trkpt>
      <trkpt lat="46.05023" lon="3.50023">
        <ele>408</ele>
        <time>2011-08-30T00:19:14Z</time>
      </trkpt>
      <trkpt lat="46.0492" lon="3.49992">
        <ele>398</ele>
        <time>2011-08-30T00:19:28Z</time>
      </trkpt>
      <trkpt lat="46.04907" lon="3.49992">
        <ele>399</ele>
        <time>2011-08-30T00:19:33Z</time>
      </trkpt>
      <trkpt lat="46.04877" lon="3.50009">
        <ele>402</ele>
        <time>2011-08-30T00:19:46Z</time>
      </trkpt>
      <trkpt lat="46.04871" lon="3.50017">
        <ele>403</ele>
        <time>2011-08-30T00:19:49Z</time>
      </trkpt>
      <trkpt lat="46.04857" lon="3.50046">
        <ele>406</ele>
        <time>2011-08-30T00:19:58Z</time>
      </trkpt>
      <trkpt lat="46.04843" lon="3.50097">
        <ele>410</ele>
        <time>2011-08-30T00:20:13Z</time>
      </trkpt>
      <trkpt lat="46.04824" lon="3.50104">
        <ele>407</ele>
        <time>2011-08-30T00:20:15Z</time>
      </trkpt>
      <trkpt lat="46.04809" lon="3.50089">
        <ele>404</ele>
        <time>2011-08-30T00:20:18Z</time>
      </trkpt>
      <trkpt lat="46.0479" lon="3.49996">
        <ele>395</ele>
        <time>2011-08-30T00:20:27Z</time>
      </trkpt>
      <trkpt lat="46.04773" lon="3.49971">
        <ele>392</ele>
        <time>2011-08-30T00:20:30Z</time>
      </trkpt>
      <trkpt lat="46.04758" lon="3.49964">
        <ele>391</ele>
        <time>2011-08-30T00:20:32Z</time>
      </trkpt>
      <trkpt lat="46.04701" lon="3.49969">
        <ele>391</ele>
        <time>2011-08-30T00:20:40Z</time>
      </trkpt>
      <trkpt lat="46.0466" lon="3.49993">
        <ele>391</ele>
        <time>2011-08-30T00:20:46Z</time>
      </trkpt>
      <trkpt lat="46.04639" lon="3.49991">
        <ele>388</ele>
        <time>2011-08-30T00:20:48Z</time>
      </trkpt>
      <trkpt lat="46.04628" lon="3.49979">
        <ele>386</ele>
        <time>2011-08-30T00:20:50Z</time>
      </trkpt>
      <trkpt lat="46.04612" lon="3.49929">
        <ele>381</ele>
        <time>2011-08-30T00:20:55Z</time>
      </trkpt>
      <trkpt lat="46.04566" lon="3.49879">
        <ele>374</ele>
        <time>2011-08-30T00:21:03Z</time>
      </trkpt>
      <trkpt lat="46.04545" lon="3.49863">
        <ele>372</ele>
        <time>2011-08-30T00:21:06Z</time>
      </trkpt>
      <trkpt lat="46.04478" lon="3.49835">
        <ele>367</ele>
        <time>2011-08-30T00:21:16Z</time>
      </trkpt>
      <trkpt lat="46.04454" lon="3.49837">
        <ele>367</ele>
        <time>2011-08-30T00:21:21Z</time>
      </trkpt>
      <trkpt lat="46.04431" lon="3.49849">
        <ele>368</ele>
        <time>2011-08-30T00:21:26Z</time>
      </trkpt>
      <trkpt lat="46.04417" lon="3.49871">
        <ele>369</ele>
        <time>2011-08-30T00:21:31Z</time>
      </trkpt>
      <trkpt lat="46.04414" lon="3.4991">
        <ele>370</ele>
        <time>2011-08-30T00:21:37Z</time>
      </trkpt>
      <trkpt lat="46.04407" lon="3.49932">
        <ele>371</ele>
        <time>2011-08-30T00:21:40Z</time>
      </trkpt>
      <trkpt lat="46.04396" lon="3.4994">
        <ele>370</ele>
        <time>2011-08-30T00:21:42Z</time>
      </trkpt>
      <trkpt lat="46.04367" lon="3.49942">
        <ele>368</ele>
        <time>2011-08-30T00:21:46Z</time>
      </trkpt>
      <trkpt lat="46.04339" lon="3.49975">
        <ele>366</ele>
        <time>2011-08-30T00:21:51Z</time>
      </trkpt>
      <trkpt lat="46.04327" lon="3.49981">
        <ele>366</ele>
        <time>2011-08-30T00:21:52Z</time>
      </trkpt>
      <trkpt lat="46.04268" lon="3.49968">
        <ele>363</ele>
        <time>2011-08-30T00:22:00Z</time>
      </trkpt>
      <trkpt lat="46.04249" lon="3.49956">
        <ele>359</ele>
        <time>2011-08-30T00:22:03Z</time>
      </trkpt>
      <trkpt lat="46.0424" lon="3.49938">
        <ele>356</ele>
        <time>2011-08-30T00:22:05Z</time>
      </trkpt>
      <trkpt lat="46.04227" lon="3.49876">
        <ele>349</ele>
        <time>2011-08-30T00:22:11Z</time>
      </trkpt>
      <trkpt lat="46.04211" lon="3.4986">
        <ele>346</ele>
        <time>2011-08-30T00:22:14Z</time>
      </trkpt>
      <trkpt lat="46.04154" lon="3.49846">
        <ele>342</ele>
        <time>2011-08-30T00:22:22Z</time>
      </trkpt>
      <trkpt lat="46.04089" lon="3.49852">
        <ele>339</ele>
        <time>2011-08-30T00:22:30Z</time>
      </trkpt>
      <trkpt lat="46.04066" lon="3.49864">
        <ele>340</ele>
        <time>2011-08-30T00:22:37Z</time>
      </trkpt>
      <trkpt lat="46.04052" lon="3.49882">
        <ele>341</ele>
        <time>2011-08-30T00:22:42Z</time>
      </trkpt>
      <trkpt lat="46.04042" lon="3.49908">
        <ele>342</ele>
        <time>2011-08-30T00:22:48Z</time>
      </trkpt>
      <trkpt lat="46.04036" lon="3.49946">
        <ele>344</ele>
        <time>2011-08-30T00:22:55Z</time>
      </trkpt>
      <trkpt lat="46.0403" lon="3.49961">
        <ele>345</ele>
        <time>2011-08-30T00:22:58Z</time>
      </trkpt>
      <trkpt lat="46.04009" lon="3.49983">
        <ele>342</ele>
        <time>2011-08-30T00:23:02Z</time>
      </trkpt>
      <trkpt lat="46.03996" lon="3.49985">
        <ele>341</ele>
        <time>2011-08-30T00:23:04Z</time>
      </trkpt>
      <trkpt lat="46.03984" lon="3.49975">
        <ele>339</ele>
        <time>2011-08-30T00:23:05Z</time>
      </trkpt>
      <trkpt lat="46.03978" lon="3.4996">
        <ele>338</ele>
        <time>2011-08-30T00:23:07Z</time>
      </trkpt>
      <trkpt lat="46.03976" lon="3.49936">
        <ele>337</ele>
        <time>2011-08-30T00:23:09Z</time>
      </trkpt>
      <trkpt lat="46.03983" lon="3.49871">
        <ele>332</ele>
        <time>2011-08-30T00:23:15Z</time>
      </trkpt>
      <trkpt lat="46.03977" lon="3.49849">
        <ele>331</ele>
        <time>2011-08-30T00:23:18Z</time>
      </trkpt>
      <trkpt lat="46.03934" lon="3.49759">
        <ele>323</ele>
        <time>2011-08-30T00:23:28Z</time>
      </trkpt>
      <trkpt lat="46.03864" lon="3.4964">
        <ele>314</ele>
        <time>2011-08-30T00:23:42Z</time>
      </trkpt>
      <trkpt lat="46.03838" lon="3.49625">
        <ele>313</ele>
        <time>2011-08-30T00:23:46Z</time>
      </trkpt>
      <trkpt lat="46.03827" lon="3.49626">
        <ele>312</ele>
        <time>2011-08-30T00:23:47Z</time>
      </trkpt>
      <trkpt lat="46.03742" lon="3.49666">
        <ele>310</ele>
        <time>2011-08-30T00:23:59Z</time>
      </trkpt>
      <trkpt lat="46.03715" lon="3.49666">
        <ele>309</ele>
        <time>2011-08-30T00:24:03Z</time>
      </trkpt>
      <trkpt lat="46.03698" lon="3.49653">
        <ele>308</ele>
        <time>2011-08-30T00:24:06Z</time>
      </trkpt>
      <trkpt lat="46.0369" lon="3.49634">
        <ele>308</ele>
        <time>2011-08-30T00:24:08Z</time>
      </trkpt>
      <trkpt lat="46.03687" lon="3.49615">
        <ele>308</ele>
        <time>2011-08-30T00:24:09Z</time>
      </trkpt>
      <trkpt lat="46.03694" lon="3.49566">
        <ele>307</ele>
        <time>2011-08-30T00:24:14Z</time>
      </trkpt>
      <trkpt lat="46.0369" lon="3.49548">
        <ele>307</ele>
        <time>2011-08-30T00:24:16Z</time>
      </trkpt>
      <trkpt lat="46.03681" lon="3.49538">
        <ele>307</ele>
        <time>2011-08-30T00:24:19Z</time>
      </trkpt>
      <trkpt lat="46.03665" lon="3.49536">
        <ele>308</ele>
        <time>2011-08-30T00:24:23Z</time>
      </trkpt>
      <trkpt lat="46.03578" lon="3.49578">
        <ele>313</ele>
        <time>2011-08-30T00:24:46Z</time>
      </trkpt>
      <trkpt lat="46.03553" lon="3.49581">
        <ele>313</ele>
        <time>2011-08-30T00:24:50Z</time>
      </trkpt>
      <trkpt lat="46.03533" lon="3.49571">
        <ele>313</ele>
        <time>2011-08-30T00:24:53Z</time>
      </trkpt>
      <trkpt lat="46.03499" lon="3.49529">
        <ele>313</ele>
        <time>2011-08-30T00:25:00Z</time>
      </trkpt>
      <trkpt lat="46.03486" lon="3.49523">
        <ele>314</ele>
        <time>2011-08-30T00:25:03Z</time>
      </trkpt>
      <trkpt lat="46.03383" lon="3.49538">
        <ele>316</ele>
        <time>2011-08-30T00:25:21Z</time>
      </trkpt>
      <trkpt lat="46.03324" lon="3.49582">
        <ele>312</ele>
        <time>2011-08-30T00:25:30Z</time>
      </trkpt>
      <trkpt lat="46.03194" lon="3.4958">
        <ele>307</ele>
        <time>2011-08-30T00:25:47Z</time>
      </trkpt>
      <trkpt lat="46.03089" lon="3.4962">
        <ele>305</ele>
        <time>2011-08-30T00:26:02Z</time>
      </trkpt>
      <trkpt lat="46.03046" lon="3.4963">
        <ele>305</ele>
        <time>2011-08-30T00:26:08Z</time>
      </trkpt>
      <trkpt lat="46.03023" lon="3.49613">
        <ele>305</ele>
        <time>2011-08-30T00:26:11Z</time>
      </trkpt>
      <trkpt lat="46.02988" lon="3.49545">
        <ele>305</ele>
        <time>2011-08-30T00:26:19Z</time>
      </trkpt>
      <trkpt lat="46.02934" lon="3.49497">
        <ele>303</ele>
        <time>2011-08-30T00:26:27Z</time>
      </trkpt>
      <trkpt lat="46.02842" lon="3.49443">
        <ele>301</ele>
        <time>2011-08-30T00:26:41Z</time>
      </trkpt>
      <trkpt lat="46.02769" lon="3.49392">
        <ele>299</ele>
        <time>2011-08-30T00:26:52Z</time>
      </trkpt>
      <trkpt lat="46.0274" lon="3.49386">
        <ele>299</ele>
        <time>2011-08-30T00:26:56Z</time>
      </trkpt>
      <trkpt lat="46.02697" lon="3.49387">
        <ele>298</ele>
        <time>2011-08-30T00:27:01Z</time>
      </trkpt>
      <trkpt lat="46.02679" lon="3.4938">
        <ele>298</ele>
        <time>2011-08-30T00:27:04Z</time>
      </trkpt>
      <trkpt lat="46.02661" lon="3.49369">
        <ele>298</ele>
        <time>2011-08-30T00:27:06Z</time>
      </trkpt>
      <trkpt lat="46.02586" lon="3.49294">
        <ele>297</ele>
        <time>2011-08-30T00:27:19Z</time>
      </trkpt>
      <trkpt lat="46.02561" lon="3.4928">
        <ele>296</ele>
        <time>2011-08-30T00:27:22Z</time>
      </trkpt>
      <trkpt lat="46.02523" lon="3.49274">
        <ele>296</ele>
        <time>2011-08-30T00:27:27Z</time>
      </trkpt>
      <trkpt lat="46.02465" lon="3.49278">
        <ele>296</ele>
        <time>2011-08-30T00:27:35Z</time>
      </trkpt>
      <trkpt lat="46.0231" lon="3.49313">
        <ele>299</ele>
        <time>2011-08-30T00:28:03Z</time>
      </trkpt>
      <trkpt lat="46.02246" lon="3.49336">
        <ele>297</ele>
        <time>2011-08-30T00:28:12Z</time>
      </trkpt>
      <trkpt lat="46.022" lon="3.49346">
        <ele>296</ele>
        <time>2011-08-30T00:28:18Z</time>
      </trkpt>
      <trkpt lat="46.02167" lon="3.49347">
        <ele>295</ele>
        <time>2011-08-30T00:28:23Z</time>
      </trkpt>
      <trkpt lat="46.02168" lon="3.49328">
        <ele>295</ele>
        <time>2011-08-30T00:28:24Z</time>
      </trkpt>
      <trkpt lat="46.02161" lon="3.49286">
        <ele>295</ele>
        <time>2011-08-30T00:28:28Z</time>
      </trkpt>
      <trkpt lat="46.01977" lon="3.49343">
        <ele>294</ele>
        <time>2011-08-30T00:28:54Z</time>
      </trkpt>
      <trkpt lat="46.01904" lon="3.49373">
        <ele>295</ele>
        <time>2011-08-30T00:29:08Z</time>
      </trkpt>
      <trkpt lat="46.01893" lon="3.49364">
        <ele>296</ele>
        <time>2011-08-30T00:29:10Z</time>
      </trkpt>
      <trkpt lat="46.01893" lon="3.49364">
        <ele>296</ele>
        <time>2011-08-30T00:29:11Z</time>
      </trkpt>
      <trkpt lat="46.0182" lon="3.493">
        <ele>294</ele>
        <time>2011-08-30T00:29:23Z</time>
      </trkpt>
      <trkpt lat="46.0181" lon="3.49295">
        <ele>294</ele>
        <time>2011-08-30T00:29:24Z</time>
      </trkpt>
      <trkpt lat="46.01785" lon="3.49294">
        <ele>293</ele>
        <time>2011-08-30T00:29:27Z</time>
      </trkpt>
      <trkpt lat="46.01778" lon="3.49253">
        <ele>291</ele>
        <time>2011-08-30T00:29:31Z</time>
      </trkpt>
      <trkpt lat="46.01789" lon="3.49217">
        <ele>290</ele>
        <time>2011-08-30T00:29:35Z</time>
      </trkpt>
      <trkpt lat="46.01792" lon="3.49194">
        <ele>290</ele>
        <time>2011-08-30T00:29:37Z</time>
      </trkpt>
      <trkpt lat="46.01785" lon="3.49149">
        <ele>289</ele>
        <time>2011-08-30T00:29:41Z</time>
      </trkpt>
      <trkpt lat="46.01765" lon="3.49074">
        <ele>287</ele>
        <time>2011-08-30T00:29:49Z</time>
      </trkpt>
      <trkpt lat="46.01546" lon="3.48953">
        <ele>280</ele>
        <time>2011-08-30T00:30:20Z</time>
      </trkpt>
      <trkpt lat="46.01527" lon="3.48932">
        <ele>280</ele>
        <time>2011-08-30T00:30:24Z</time>
      </trkpt>
      <trkpt lat="46.01487" lon="3.48926">
        <ele>280</ele>
        <time>2011-08-30T00:30:30Z</time>
      </trkpt>
      <trkpt lat="46.01141" lon="3.48843">
        <ele>283</ele>
        <time>2011-08-30T00:31:23Z</time>
      </trkpt>
      <trkpt lat="46.00869" lon="3.48757">
        <ele>279</ele>
        <time>2011-08-30T00:32:00Z</time>
      </trkpt>
      <trkpt lat="46.00857" lon="3.48744">
        <ele>278</ele>
        <time>2011-08-30T00:32:02Z</time>
      </trkpt>
      <trkpt lat="46.00849" lon="3.48721">
        <ele>278</ele>
        <time>2011-08-30T00:32:04Z</time>
      </trkpt>
      <trkpt lat="46.00755" lon="3.48706">
        <ele>278</ele>
        <time>2011-08-30T00:32:17Z</time>
      </trkpt>
      <trkpt lat="46.00596" lon="3.48659">
        <ele>278</ele>
        <time>2011-08-30T00:32:39Z</time>
      </trkpt>
      <trkpt lat="46.00541" lon="3.48648">
        <ele>278</ele>
        <time>2011-08-30T00:32:46Z</time>
      </trkpt>
      <trkpt lat="46.00115" lon="3.48511">
        <ele>279</ele>
        <time>2011-08-30T00:33:47Z</time>
      </trkpt>
      <trkpt lat="46.00066" lon="3.48503">
        <ele>279</ele>
        <time>2011-08-30T00:33:54Z</time>
      </trkpt>
      <trkpt lat="45.98962" lon="3.48641">
        <ele>282</ele>
        <time>2011-08-30T00:36:29Z</time>
      </trkpt>
      <trkpt lat="45.98928" lon="3.48649">
        <ele>282</ele>
        <time>2011-08-30T00:36:35Z</time>
      </trkpt>
      <trkpt lat="45.98853" lon="3.48683">
        <ele>285</ele>
        <time>2011-08-30T00:36:51Z</time>
      </trkpt>
      <trkpt lat="45.98821" lon="3.48688">
        <ele>285</ele>
        <time>2011-08-30T00:36:57Z</time>
      </trkpt>
      <trkpt lat="45.98797" lon="3.48684">
        <ele>286</ele>
        <time>2011-08-30T00:37:02Z</time>
      </trkpt>
      <trkpt lat="45.98773" lon="3.48675">
        <ele>287</ele>
        <time>2011-08-30T00:37:07Z</time>
      </trkpt>
      <trkpt lat="45.9875" lon="3.48657">
        <ele>288</ele>
        <time>2011-08-30T00:37:12Z</time>
      </trkpt>
      <trkpt lat="45.98698" lon="3.48592">
        <ele>284</ele>
        <time>2011-08-30T00:37:22Z</time>
      </trkpt>
      <trkpt lat="45.98666" lon="3.48566">
        <ele>282</ele>
        <time>2011-08-30T00:37:27Z</time>
      </trkpt>
      <trkpt lat="45.98636" lon="3.48557">
        <ele>281</ele>
        <time>2011-08-30T00:37:31Z</time>
      </trkpt>
      <trkpt lat="45.98578" lon="3.48558">
        <ele>281</ele>
        <time>2011-08-30T00:37:38Z</time>
      </trkpt>
      <trkpt lat="45.98535" lon="3.48549">
        <ele>281</ele>
        <time>2011-08-30T00:37:44Z</time>
      </trkpt>
      <trkpt lat="45.9766" lon="3.4822">
        <ele>281</ele>
        <time>2011-08-30T00:39:45Z</time>
      </trkpt>
      <trkpt lat="45.97599" lon="3.48185">
        <ele>281</ele>
        <time>2011-08-30T00:39:55Z</time>
      </trkpt>
      <trkpt lat="45.97345" lon="3.48012">
        <ele>284</ele>
        <time>2011-08-30T00:40:39Z</time>
      </trkpt>
      <trkpt lat="45.97295" lon="3.47999">
        <ele>285</ele>
        <time>2011-08-30T00:40:48Z</time>
      </trkpt>
      <trkpt lat="45.97204" lon="3.48005">
        <ele>287</ele>
        <time>2011-08-30T00:41:05Z</time>
      </trkpt>
      <trkpt lat="45.96974" lon="3.47953">
        <ele>284</ele>
        <time>2011-08-30T00:41:36Z</time>
      </trkpt>
      <trkpt lat="45.9646" lon="3.47646">
        <ele>282</ele>
        <time>2011-08-30T00:42:50Z</time>
      </trkpt>
      <trkpt lat="45.9636" lon="3.47593">
        <ele>280</ele>
        <time>2011-08-30T00:43:04Z</time>
      </trkpt>
      <trkpt lat="45.962" lon="3.47496">
        <ele>279</ele>
        <time>2011-08-30T00:43:28Z</time>
      </trkpt>
      <trkpt lat="45.962" lon="3.47496">
        <ele>279</ele>
        <time>2011-08-30T00:43:29Z</time>
      </trkpt>
      <trkpt lat="45.96153" lon="3.47469">
        <ele>279</ele>
        <time>2011-08-30T00:43:38Z</time>
      </trkpt>
      <trkpt lat="45.96004" lon="3.47411">
        <ele>283</ele>
        <time>2011-08-30T00:44:06Z</time>
      </trkpt>
      <trkpt lat="45.95986" lon="3.47411">
        <ele>282</ele>
        <time>2011-08-30T00:44:08Z</time>
      </trkpt>
      <trkpt lat="45.9602" lon="3.47123">
        <ele>280</ele>
        <time>2011-08-30T00:44:35Z</time>
      </trkpt>
      <trkpt lat="45.96052" lon="3.46981">
        <ele>276</ele>
        <time>2011-08-30T00:44:49Z</time>
      </trkpt>
      <trkpt lat="45.96074" lon="3.46919">
        <ele>274</ele>
        <time>2011-08-30T00:44:55Z</time>
      </trkpt>
      <trkpt lat="45.96096" lon="3.46884">
        <ele>273</ele>
        <time>2011-08-30T00:45:00Z</time>
      </trkpt>
      <trkpt lat="45.96096" lon="3.46873">
        <ele>273</ele>
        <time>2011-08-30T00:45:01Z</time>
      </trkpt>
      <trkpt lat="45.96108" lon="3.46836">
        <ele>273</ele>
        <time>2011-08-30T00:45:05Z</time>
      </trkpt>
      <trkpt lat="45.96305" lon="3.46322">
        <ele>272</ele>
        <time>2011-08-30T00:45:59Z</time>
      </trkpt>
      <trkpt lat="45.96229" lon="3.4626">
        <ele>272</ele>
        <time>2011-08-30T00:46:13Z</time>
      </trkpt>
      <trkpt lat="45.96096" lon="3.46162">
        <ele>274</ele>
        <time>2011-08-30T00:46:36Z</time>
      </trkpt>
      <trkpt lat="45.95967" lon="3.46082">
        <ele>274</ele>
        <time>2011-08-30T00:46:54Z</time>
      </trkpt>
      <trkpt lat="45.95924" lon="3.4605">
        <ele>273</ele>
        <time>2011-08-30T00:47:01Z</time>
      </trkpt>
      <trkpt lat="45.95713" lon="3.45859">
        <ele>272</ele>
        <time>2011-08-30T00:47:34Z</time>
      </trkpt>
      <trkpt lat="45.9568" lon="3.45817">
        <ele>272</ele>
        <time>2011-08-30T00:47:40Z</time>
      </trkpt>
      <trkpt lat="45.95652" lon="3.45756">
        <ele>272</ele>
        <time>2011-08-30T00:47:47Z</time>
      </trkpt>
      <trkpt lat="45.95587" lon="3.45508">
        <ele>273</ele>
        <time>2011-08-30T00:48:14Z</time>
      </trkpt>
      <trkpt lat="45.95571" lon="3.45465">
        <ele>273</ele>
        <time>2011-08-30T00:48:19Z</time>
      </trkpt>
      <trkpt lat="45.95536" lon="3.45406">
        <ele>273</ele>
        <time>2011-08-30T00:48:27Z</time>
      </trkpt>
      <trkpt lat="45.95504" lon="3.45371">
        <ele>274</ele>
        <time>2011-08-30T00:48:33Z</time>
      </trkpt>
      <trkpt lat="45.95479" lon="3.45351">
        <ele>274</ele>
        <time>2011-08-30T00:48:37Z</time>
      </trkpt>
      <trkpt lat="45.95267" lon="3.4525">
        <ele>274</ele>
        <time>2011-08-30T00:49:07Z</time>
      </trkpt>
      <trkpt lat="45.95212" lon="3.45209">
        <ele>275</ele>
        <time>2011-08-30T00:49:18Z</time>
      </trkpt>
      <trkpt lat="45.95186" lon="3.45173">
        <ele>276</ele>
        <time>2011-08-30T00:49:25Z</time>
      </trkpt>
      <trkpt lat="45.95124" lon="3.45043">
        <ele>274</ele>
        <time>2011-08-30T00:49:39Z</time>
      </trkpt>
      <trkpt lat="45.95099" lon="3.45004">
        <ele>274</ele>
        <time>2011-08-30T00:49:45Z</time>
      </trkpt>
      <trkpt lat="45.95063" lon="3.44971">
        <ele>275</ele>
        <time>2011-08-30T00:49:53Z</time>
      </trkpt>
      <trkpt lat="45.94993" lon="3.4493">
        <ele>276</ele>
        <time>2011-08-30T00:50:05Z</time>
      </trkpt>
      <trkpt lat="45.94959" lon="3.44886">
        <ele>275</ele>
        <time>2011-08-30T00:50:11Z</time>
      </trkpt>
      <trkpt lat="45.94834" lon="3.44627">
        <ele>273</ele>
        <time>2011-08-30T00:50:40Z</time>
      </trkpt>
      <trkpt lat="45.94805" lon="3.44541">
        <ele>273</ele>
        <time>2011-08-30T00:50:50Z</time>
      </trkpt>
      <trkpt lat="45.94753" lon="3.44348">
        <ele>274</ele>
        <time>2011-08-30T00:51:11Z</time>
      </trkpt>
      <trkpt lat="45.94738" lon="3.44274">
        <ele>273</ele>
        <time>2011-08-30T00:51:18Z</time>
      </trkpt>
      <trkpt lat="45.9473" lon="3.44209">
        <ele>273</ele>
        <time>2011-08-30T00:51:24Z</time>
      </trkpt>
      <trkpt lat="45.94731" lon="3.44093">
        <ele>273</ele>
        <time>2011-08-30T00:51:36Z</time>
      </trkpt>
      <trkpt lat="45.94752" lon="3.43937">
        <ele>274</ele>
        <time>2011-08-30T00:51:52Z</time>
      </trkpt>
      <trkpt lat="45.94749" lon="3.43902">
        <ele>274</ele>
        <time>2011-08-30T00:51:55Z</time>
      </trkpt>
      <trkpt lat="45.94719" lon="3.43795">
        <ele>274</ele>
        <time>2011-08-30T00:52:06Z</time>
      </trkpt>
      <trkpt lat="45.94713" lon="3.43759">
        <ele>273</ele>
        <time>2011-08-30T00:52:10Z</time>
      </trkpt>
      <trkpt lat="45.94713" lon="3.43711">
        <ele>273</ele>
        <time>2011-08-30T00:52:14Z</time>
      </trkpt>
      <trkpt lat="45.94722" lon="3.43619">
        <ele>273</ele>
        <time>2011-08-30T00:52:23Z</time>
      </trkpt>
      <trkpt lat="45.94723" lon="3.43536">
        <ele>273</ele>
        <time>2011-08-30T00:52:32Z</time>
      </trkpt>
      <trkpt lat="45.94717" lon="3.43463">
        <ele>274</ele>
        <time>2011-08-30T00:52:40Z</time>
      </trkpt>
      <trkpt lat="45.94699" lon="3.43365">
        <ele>275</ele>
        <time>2011-08-30T00:52:54Z</time>
      </trkpt>
      <trkpt lat="45.94682" lon="3.43316">
        <ele>277</ele>
        <time>2011-08-30T00:53:01Z</time>
      </trkpt>
      <trkpt lat="45.94667" lon="3.43297">
        <ele>277</ele>
        <time>2011-08-30T00:53:05Z</time>
      </trkpt>
      <trkpt lat="45.94568" lon="3.43249">
        <ele>281</ele>
        <time>2011-08-30T00:53:27Z</time>
      </trkpt>
      <trkpt lat="45.94568" lon="3.43249">
        <ele>281</ele>
        <time>2011-08-30T00:53:28Z</time>
      </trkpt>
      <trkpt lat="45.94524" lon="3.43229">
        <ele>282</ele>
        <time>2011-08-30T00:53:38Z</time>
      </trkpt>
      <trkpt lat="45.94454" lon="3.43287">
        <ele>285</ele>
        <time>2011-08-30T00:53:55Z</time>
      </trkpt>
      <trkpt lat="45.94444" lon="3.4329">
        <ele>285</ele>
        <time>2011-08-30T00:53:56Z</time>
      </trkpt>
      <trkpt lat="45.94434" lon="3.43286">
        <ele>285</ele>
        <time>2011-08-30T00:53:58Z</time>
      </trkpt>
      <trkpt lat="45.94397" lon="3.43247">
        <ele>285</ele>
        <time>2011-08-30T00:54:04Z</time>
      </trkpt>
      <trkpt lat="45.94388" lon="3.43232">
        <ele>285</ele>
        <time>2011-08-30T00:54:06Z</time>
      </trkpt>
      <trkpt lat="45.94364" lon="3.43126">
        <ele>285</ele>
        <time>2011-08-30T00:54:16Z</time>
      </trkpt>
      <trkpt lat="45.94354" lon="3.43101">
        <ele>285</ele>
        <time>2011-08-30T00:54:19Z</time>
      </trkpt>
      <trkpt lat="45.9425" lon="3.42991">
        <ele>286</ele>
        <time>2011-08-30T00:54:38Z</time>
      </trkpt>
      <trkpt lat="45.94195" lon="3.42895">
        <ele>287</ele>
        <time>2011-08-30T00:54:54Z</time>
      </trkpt>
      <trkpt lat="45.94182" lon="3.42886">
        <ele>288</ele>
        <time>2011-08-30T00:54:57Z</time>
      </trkpt>
      <trkpt lat="45.9416" lon="3.4288">
        <ele>288</ele>
        <time>2011-08-30T00:55:02Z</time>
      </trkpt>
      <trkpt lat="45.94091" lon="3.42876">
        <ele>292</ele>
        <time>2011-08-30T00:55:18Z</time>
      </trkpt>
      <trkpt lat="45.94016" lon="3.42817">
        <ele>293</ele>
        <time>2011-08-30T00:55:33Z</time>
      </trkpt>
      <trkpt lat="45.93973" lon="3.42789">
        <ele>294</ele>
        <time>2011-08-30T00:55:41Z</time>
      </trkpt>
      <trkpt lat="45.9392" lon="3.42708">
        <ele>297</ele>
        <time>2011-08-30T00:56:00Z</time>
      </trkpt>
      <trkpt lat="45.9388" lon="3.42579">
        <ele>302</ele>
        <time>2011-08-30T00:56:24Z</time>
      </trkpt>
      <trkpt lat="45.93852" lon="3.42533">
        <ele>302</ele>
        <time>2011-08-30T00:56:29Z</time>
      </trkpt>
      <trkpt lat="45.93828" lon="3.4252">
        <ele>302</ele>
        <time>2011-08-30T00:56:33Z</time>
      </trkpt>
      <trkpt lat="45.93766" lon="3.42518">
        <ele>302</ele>
        <time>2011-08-30T00:56:41Z</time>
      </trkpt>
      <trkpt lat="45.93726" lon="3.42509">
        <ele>302</ele>
        <time>2011-08-30T00:56:47Z</time>
      </trkpt>
      <trkpt lat="45.93704" lon="3.42498">
        <ele>302</ele>
        <time>2011-08-30T00:56:51Z</time>
      </trkpt>
      <trkpt lat="45.9358" lon="3.42396">
        <ele>304</ele>
        <time>2011-08-30T00:57:13Z</time>
      </trkpt>
      <trkpt lat="45.93558" lon="3.42365">
        <ele>304</ele>
        <time>2011-08-30T00:57:18Z</time>
      </trkpt>
      <trkpt lat="45.93514" lon="3.42285">
        <ele>305</ele>
        <time>2011-08-30T00:57:29Z</time>
      </trkpt>
      <trkpt lat="45.93491" lon="3.42258">
        <ele>305</ele>
        <time>2011-08-30T00:57:34Z</time>
      </trkpt>
      <trkpt lat="45.93448" lon="3.4224">
        <ele>305</ele>
        <time>2011-08-30T00:57:41Z</time>
      </trkpt>
      <trkpt lat="45.93372" lon="3.42232">
        <ele>306</ele>
        <time>2011-08-30T00:57:52Z</time>
      </trkpt>
      <trkpt lat="45.93302" lon="3.42173">
        <ele>309</ele>
        <time>2011-08-30T00:58:10Z</time>
      </trkpt>
      <trkpt lat="45.93233" lon="3.4213">
        <ele>312</ele>
        <time>2011-08-30T00:58:27Z</time>
      </trkpt>
      <trkpt lat="45.93212" lon="3.42108">
        <ele>312</ele>
        <time>2011-08-30T00:58:31Z</time>
      </trkpt>
      <trkpt lat="45.93193" lon="3.42077">
        <ele>312</ele>
        <time>2011-08-30T00:58:35Z</time>
      </trkpt>
      <trkpt lat="45.93171" lon="3.42015">
        <ele>312</ele>
        <time>2011-08-30T00:58:41Z</time>
      </trkpt>
      <trkpt lat="45.93152" lon="3.41981">
        <ele>312</ele>
        <time>2011-08-30T00:58:46Z</time>
      </trkpt>
      <trkpt lat="45.93129" lon="3.41955">
        <ele>312</ele>
        <time>2011-08-30T00:58:51Z</time>
      </trkpt>
      <trkpt lat="45.93101" lon="3.41932">
        <ele>313</ele>
        <time>2011-08-30T00:58:56Z</time>
      </trkpt>
      <trkpt lat="45.93074" lon="3.41921">
        <ele>313</ele>
        <time>2011-08-30T00:59:02Z</time>
      </trkpt>
      <trkpt lat="45.93038" lon="3.41916">
        <ele>315</ele>
        <time>2011-08-30T00:59:10Z</time>
      </trkpt>
      <trkpt lat="45.92987" lon="3.41927">
        <ele>317</ele>
        <time>2011-08-30T00:59:21Z</time>
      </trkpt>
      <trkpt lat="45.92897" lon="3.4192">
        <ele>323</ele>
        <time>2011-08-30T00:59:47Z</time>
      </trkpt>
      <trkpt lat="45.92771" lon="3.41939">
        <ele>332</ele>
        <time>2011-08-30T01:00:26Z</time>
      </trkpt>
      <trkpt lat="45.92712" lon="3.41958">
        <ele>335</ele>
        <time>2011-08-30T01:00:41Z</time>
      </trkpt>
      <trkpt lat="45.92674" lon="3.41954">
        <ele>337</ele>
        <time>2011-08-30T01:00:51Z</time>
      </trkpt>
      <trkpt lat="45.92616" lon="3.41874">
        <ele>339</ele>
        <time>2011-08-30T01:01:08Z</time>
      </trkpt>
      <trkpt lat="45.92534" lon="3.41798">
        <ele>343</ele>
        <time>2011-08-30T01:01:29Z</time>
      </trkpt>
      <trkpt lat="45.92472" lon="3.41772">
        <ele>341</ele>
        <time>2011-08-30T01:01:38Z</time>
      </trkpt>
      <trkpt lat="45.92394" lon="3.41716">
        <ele>340</ele>
        <time>2011-08-30T01:01:49Z</time>
      </trkpt>
      <trkpt lat="45.92381" lon="3.41701">
        <ele>340</ele>
        <time>2011-08-30T01:01:52Z</time>
      </trkpt>
      <trkpt lat="45.92371" lon="3.41673">
        <ele>340</ele>
        <time>2011-08-30T01:01:54Z</time>
      </trkpt>
      <trkpt lat="45.92358" lon="3.41593">
        <ele>340</ele>
        <time>2011-08-30T01:02:02Z</time>
      </trkpt>
      <trkpt lat="45.92348" lon="3.41566">
        <ele>340</ele>
        <time>2011-08-30T01:02:05Z</time>
      </trkpt>
      <trkpt lat="45.92285" lon="3.4145">
        <ele>341</ele>
        <time>2011-08-30T01:02:21Z</time>
      </trkpt>
      <trkpt lat="45.92183" lon="3.41242">
        <ele>342</ele>
        <time>2011-08-30T01:02:47Z</time>
      </trkpt>
      <trkpt lat="45.92166" lon="3.41221">
        <ele>342</ele>
        <time>2011-08-30T01:02:51Z</time>
      </trkpt>
      <trkpt lat="45.92131" lon="3.41198">
        <ele>342</ele>
        <time>2011-08-30T01:02:57Z</time>
      </trkpt>
      <trkpt lat="45.92107" lon="3.41191">
        <ele>342</ele>
        <time>2011-08-30T01:03:00Z</time>
      </trkpt>
      <trkpt lat="45.92081" lon="3.41199">
        <ele>343</ele>
        <time>2011-08-30T01:03:04Z</time>
      </trkpt>
      <trkpt lat="45.92019" lon="3.41241">
        <ele>343</ele>
        <time>2011-08-30T01:03:14Z</time>
      </trkpt>
      <trkpt lat="45.9193" lon="3.4125">
        <ele>343</ele>
        <time>2011-08-30T01:03:26Z</time>
      </trkpt>
      <trkpt lat="45.91695" lon="3.41288">
        <ele>344</ele>
        <time>2011-08-30T01:04:00Z</time>
      </trkpt>
      <trkpt lat="45.91625" lon="3.41278">
        <ele>345</ele>
        <time>2011-08-30T01:04:12Z</time>
      </trkpt>
      <trkpt lat="45.91594" lon="3.4127">
        <ele>346</ele>
        <time>2011-08-30T01:04:18Z</time>
      </trkpt>
      <trkpt lat="45.91533" lon="3.41235">
        <ele>346</ele>
        <time>2011-08-30T01:04:28Z</time>
      </trkpt>
      <trkpt lat="45.91419" lon="3.41143">
        <ele>348</ele>
        <time>2011-08-30T01:04:49Z</time>
      </trkpt>
      <trkpt lat="45.91261" lon="3.41041">
        <ele>350</ele>
        <time>2011-08-30T01:05:17Z</time>
      </trkpt>
      <trkpt lat="45.91212" lon="3.41019">
        <ele>349</ele>
        <time>2011-08-30T01:05:24Z</time>
      </trkpt>
      <trkpt lat="45.91066" lon="3.40976">
        <ele>349</ele>
        <time>2011-08-30T01:05:44Z</time>
      </trkpt>
      <trkpt lat="45.91026" lon="3.40977">
        <ele>349</ele>
        <time>2011-08-30T01:05:50Z</time>
      </trkpt>
      <trkpt lat="45.90966" lon="3.40988">
        <ele>350</ele>
        <time>2011-08-30T01:05:59Z</time>
      </trkpt>
      <trkpt lat="45.90811" lon="3.40982">
        <ele>350</ele>
        <time>2011-08-30T01:06:20Z</time>
      </trkpt>
      <trkpt lat="45.907" lon="3.40989">
        <ele>352</ele>
        <time>2011-08-30T01:06:40Z</time>
      </trkpt>
      <trkpt lat="45.90452" lon="3.41047">
        <ele>352</ele>
        <time>2011-08-30T01:07:13Z</time>
      </trkpt>
      <trkpt lat="45.9034" lon="3.41078">
        <ele>352</ele>
        <time>2011-08-30T01:07:29Z</time>
      </trkpt>
      <trkpt lat="45.90236" lon="3.41116">
        <ele>351</ele>
        <time>2011-08-30T01:07:43Z</time>
      </trkpt>
      <trkpt lat="45.90215" lon="3.41119">
        <ele>350</ele>
        <time>2011-08-30T01:07:46Z</time>
      </trkpt>
      <trkpt lat="45.90192" lon="3.41113">
        <ele>350</ele>
        <time>2011-08-30T01:07:49Z</time>
      </trkpt>
      <trkpt lat="45.90163" lon="3.41086">
        <ele>350</ele>
        <time>2011-08-30T01:07:54Z</time>
      </trkpt>
      <trkpt lat="45.9013" lon="3.40989">
        <ele>350</ele>
        <time>2011-08-30T01:08:04Z</time>
      </trkpt>
      <trkpt lat="45.901" lon="3.40955">
        <ele>349</ele>
        <time>2011-08-30T01:08:09Z</time>
      </trkpt>
      <trkpt lat="45.90081" lon="3.4094">
        <ele>349</ele>
        <time>2011-08-30T01:08:12Z</time>
      </trkpt>
      <trkpt lat="45.90048" lon="3.41">
        <ele>349</ele>
        <time>2011-08-30T01:08:19Z</time>
      </trkpt>
      <trkpt lat="45.89986" lon="3.41084">
        <ele>349</ele>
        <time>2011-08-30T01:08:30Z</time>
      </trkpt>
      <trkpt lat="45.89962" lon="3.41126">
        <ele>349</ele>
        <time>2011-08-30T01:08:35Z</time>
      </trkpt>
      <trkpt lat="45.89945" lon="3.4117">
        <ele>349</ele>
        <time>2011-08-30T01:08:40Z</time>
      </trkpt>
      <trkpt lat="45.89938" lon="3.41168">
        <ele>349</ele>
        <time>2011-08-30T01:08:41Z</time>
      </trkpt>
      <trkpt lat="45.89913" lon="3.41177">
        <ele>349</ele>
        <time>2011-08-30T01:08:44Z</time>
      </trkpt>
      <trkpt lat="45.89718" lon="3.41259">
        <ele>351</ele>
        <time>2011-08-30T01:09:16Z</time>
      </trkpt>
      <trkpt lat="45.89639" lon="3.413">
        <ele>353</ele>
        <time>2011-08-30T01:09:32Z</time>
      </trkpt>
      <trkpt lat="45.89639" lon="3.41299">
        <ele>353</ele>
        <time>2011-08-30T01:09:32Z</time>
      </trkpt>
      <trkpt lat="45.89568" lon="3.41341">
        <ele>354</ele>
        <time>2011-08-30T01:09:46Z</time>
      </trkpt>
      <trkpt lat="45.8949" lon="3.41406">
        <ele>356</ele>
        <time>2011-08-30T01:10:02Z</time>
      </trkpt>
      <trkpt lat="45.89416" lon="3.41423">
        <ele>356</ele>
        <time>2011-08-30T01:10:14Z</time>
      </trkpt>
      <trkpt lat="45.8939" lon="3.41422">
        <ele>357</ele>
        <time>2011-08-30T01:10:18Z</time>
      </trkpt>
      <trkpt lat="45.89315" lon="3.41404">
        <ele>357</ele>
        <time>2011-08-30T01:10:29Z</time>
      </trkpt>
      <trkpt lat="45.89171" lon="3.41361">
        <ele>359</ele>
        <time>2011-08-30T01:10:52Z</time>
      </trkpt>
      <trkpt lat="45.8911" lon="3.4133">
        <ele>359</ele>
        <time>2011-08-30T01:11:01Z</time>
      </trkpt>
      <trkpt lat="45.89055" lon="3.41315">
        <ele>359</ele>
        <time>2011-08-30T01:11:08Z</time>
      </trkpt>
      <trkpt lat="45.88724" lon="3.41265">
        <ele>364</ele>
        <time>2011-08-30T01:12:05Z</time>
      </trkpt>
      <trkpt lat="45.88598" lon="3.41292">
        <ele>366</ele>
        <time>2011-08-30T01:12:27Z</time>
      </trkpt>
      <trkpt lat="45.88502" lon="3.41349">
        <ele>365</ele>
        <time>2011-08-30T01:12:40Z</time>
      </trkpt>
      <trkpt lat="45.884" lon="3.41383">
        <ele>364</ele>
        <time>2011-08-30T01:12:54Z</time>
      </trkpt>
      <trkpt lat="45.88277" lon="3.41414">
        <ele>365</ele>
        <time>2011-08-30T01:13:14Z</time>
      </trkpt>
      <trkpt lat="45.88219" lon="3.41409">
        <ele>365</ele>
        <time>2011-08-30T01:13:21Z</time>
      </trkpt>
      <trkpt lat="45.88182" lon="3.41393">
        <ele>365</ele>
        <time>2011-08-30T01:13:26Z</time>
      </trkpt>
      <trkpt lat="45.88152" lon="3.41371">
        <ele>365</ele>
        <time>2011-08-30T01:13:32Z</time>
      </trkpt>
      <trkpt lat="45.88093" lon="3.41304">
        <ele>366</ele>
        <time>2011-08-30T01:13:43Z</time>
      </trkpt>
      <trkpt lat="45.88066" lon="3.41284">
        <ele>366</ele>
        <time>2011-08-30T01:13:47Z</time>
      </trkpt>
      <trkpt lat="45.87957" lon="3.41248">
        <ele>366</ele>
        <time>2011-08-30T01:14:02Z</time>
      </trkpt>
      <trkpt lat="45.87844" lon="3.41245">
        <ele>367</ele>
        <time>2011-08-30T01:14:20Z</time>
      </trkpt>
      <trkpt lat="45.87707" lon="3.41218">
        <ele>369</ele>
        <time>2011-08-30T01:14:43Z</time>
      </trkpt>
      <trkpt lat="45.87694" lon="3.41211">
        <ele>369</ele>
        <time>2011-08-30T01:14:45Z</time>
      </trkpt>
      <trkpt lat="45.87637" lon="3.41145">
        <ele>369</ele>
        <time>2011-08-30T01:14:56Z</time>
      </trkpt>
      <trkpt lat="45.87598" lon="3.4111">
        <ele>370</ele>
        <time>2011-08-30T01:15:03Z</time>
      </trkpt>
      <trkpt lat="45.87141" lon="3.40942">
        <ele>377</ele>
        <time>2011-08-30T01:16:23Z</time>
      </trkpt>
      <trkpt lat="45.87007" lon="3.40887">
        <ele>377</ele>
        <time>2011-08-30T01:16:42Z</time>
      </trkpt>
      <trkpt lat="45.86894" lon="3.4085">
        <ele>379</ele>
        <time>2011-08-30T01:17:02Z</time>
      </trkpt>
      <trkpt lat="45.86712" lon="3.40733">
        <ele>379</ele>
        <time>2011-08-30T01:17:29Z</time>
      </trkpt>
      <trkpt lat="45.8662" lon="3.40684">
        <ele>381</ele>
        <time>2011-08-30T01:17:47Z</time>
      </trkpt>
      <trkpt lat="45.86563" lon="3.40639">
        <ele>381</ele>
        <time>2011-08-30T01:17:58Z</time>
      </trkpt>
      <trkpt lat="45.86428" lon="3.40554">
        <ele>384</ele>
        <time>2011-08-30T01:18:22Z</time>
      </trkpt>
      <trkpt lat="45.86396" lon="3.40518">
        <ele>384</ele>
        <time>2011-08-30T01:18:29Z</time>
      </trkpt>
      <trkpt lat="45.86362" lon="3.40456">
        <ele>385</ele>
        <time>2011-08-30T01:18:37Z</time>
      </trkpt>
      <trkpt lat="45.8635" lon="3.40442">
        <ele>385</ele>
        <time>2011-08-30T01:18:40Z</time>
      </trkpt>
      <trkpt lat="45.8628" lon="3.40386">
        <ele>386</ele>
        <time>2011-08-30T01:18:53Z</time>
      </trkpt>
      <trkpt lat="45.86166" lon="3.40273">
        <ele>390</ele>
        <time>2011-08-30T01:19:21Z</time>
      </trkpt>
      <trkpt lat="45.86107" lon="3.40238">
        <ele>390</ele>
        <time>2011-08-30T01:19:32Z</time>
      </trkpt>
      <trkpt lat="45.85923" lon="3.40161">
        <ele>394</ele>
        <time>2011-08-30T01:20:04Z</time>
      </trkpt>
      <trkpt lat="45.85649" lon="3.40103">
        <ele>395</ele>
        <time>2011-08-30T01:20:44Z</time>
      </trkpt>
      <trkpt lat="45.85484" lon="3.40103">
        <ele>395</ele>
        <time>2011-08-30T01:21:06Z</time>
      </trkpt>
      <trkpt lat="45.85429" lon="3.4009">
        <ele>394</ele>
        <time>2011-08-30T01:21:13Z</time>
      </trkpt>
      <trkpt lat="45.85418" lon="3.40092">
        <ele>394</ele>
        <time>2011-08-30T01:21:15Z</time>
      </trkpt>
      <trkpt lat="45.85405" lon="3.40103">
        <ele>394</ele>
        <time>2011-08-30T01:21:17Z</time>
      </trkpt>
      <trkpt lat="45.85328" lon="3.40035">
        <ele>394</ele>
        <time>2011-08-30T01:21:29Z</time>
      </trkpt>
      <trkpt lat="45.85292" lon="3.39995">
        <ele>394</ele>
        <time>2011-08-30T01:21:36Z</time>
      </trkpt>
      <trkpt lat="45.85264" lon="3.39936">
        <ele>395</ele>
        <time>2011-08-30T01:21:44Z</time>
      </trkpt>
      <trkpt lat="45.85247" lon="3.39868">
        <ele>394</ele>
        <time>2011-08-30T01:21:51Z</time>
      </trkpt>
      <trkpt lat="45.85245" lon="3.39824">
        <ele>394</ele>
        <time>2011-08-30T01:21:55Z</time>
      </trkpt>
      <trkpt lat="45.8526" lon="3.39559">
        <ele>394</ele>
        <time>2011-08-30T01:22:20Z</time>
      </trkpt>
      <trkpt lat="45.85271" lon="3.39487">
        <ele>393</ele>
        <time>2011-08-30T01:22:26Z</time>
      </trkpt>
      <trkpt lat="45.85299" lon="3.39367">
        <ele>392</ele>
        <time>2011-08-30T01:22:38Z</time>
      </trkpt>
      <trkpt lat="45.85304" lon="3.39252">
        <ele>394</ele>
        <time>2011-08-30T01:22:54Z</time>
      </trkpt>
      <trkpt lat="45.85178" lon="3.39274">
        <ele>398</ele>
        <time>2011-08-30T01:23:20Z</time>
      </trkpt>
      <trkpt lat="45.84777" lon="3.39264">
        <ele>395</ele>
        <time>2011-08-30T01:24:14Z</time>
      </trkpt>
      <trkpt lat="45.84777" lon="3.39261">
        <ele>394</ele>
        <time>2011-08-30T01:24:14Z</time>
      </trkpt>
      <trkpt lat="45.84467" lon="3.39269">
        <ele>393</ele>
        <time>2011-08-30T01:24:56Z</time>
      </trkpt>
      <trkpt lat="45.84371" lon="3.39269">
        <ele>392</ele>
        <time>2011-08-30T01:25:08Z</time>
      </trkpt>
      <trkpt lat="45.8435" lon="3.39264">
        <ele>391</ele>
        <time>2011-08-30T01:25:11Z</time>
      </trkpt>
      <trkpt lat="45.8416" lon="3.39116">
        <ele>384</ele>
        <time>2011-08-30T01:25:40Z</time>
      </trkpt>
      <trkpt lat="45.84091" lon="3.39056">
        <ele>382</ele>
        <time>2011-08-30T01:25:51Z</time>
      </trkpt>
      <trkpt lat="45.83512" lon="3.38592">
        <ele>371</ele>
        <time>2011-08-30T01:27:19Z</time>
      </trkpt>
      <trkpt lat="45.83392" lon="3.3849">
        <ele>368</ele>
        <time>2011-08-30T01:27:38Z</time>
      </trkpt>
      <trkpt lat="45.83349" lon="3.3846">
        <ele>367</ele>
        <time>2011-08-30T01:27:44Z</time>
      </trkpt>
      <trkpt lat="45.83172" lon="3.38312">
        <ele>364</ele>
        <time>2011-08-30T01:28:12Z</time>
      </trkpt>
      <trkpt lat="45.83163" lon="3.38309">
        <ele>363</ele>
        <time>2011-08-30T01:28:13Z</time>
      </trkpt>
      <trkpt lat="45.83146" lon="3.38289">
        <ele>363</ele>
        <time>2011-08-30T01:28:16Z</time>
      </trkpt>
      <trkpt lat="45.83064" lon="3.38228">
        <ele>363</ele>
        <time>2011-08-30T01:28:28Z</time>
      </trkpt>
      <trkpt lat="45.82824" lon="3.3803">
        <ele>360</ele>
        <time>2011-08-30T01:29:05Z</time>
      </trkpt>
      <trkpt lat="45.82803" lon="3.38026">
        <ele>360</ele>
        <time>2011-08-30T01:29:08Z</time>
      </trkpt>
      <trkpt lat="45.82752" lon="3.37996">
        <ele>360</ele>
        <time>2011-08-30T01:29:15Z</time>
      </trkpt>
      <trkpt lat="45.82682" lon="3.3797">
        <ele>360</ele>
        <time>2011-08-30T01:29:25Z</time>
      </trkpt>
      <trkpt lat="45.82645" lon="3.3797">
        <ele>358</ele>
        <time>2011-08-30T01:29:30Z</time>
      </trkpt>
      <trkpt lat="45.82574" lon="3.37952">
        <ele>357</ele>
        <time>2011-08-30T01:29:40Z</time>
      </trkpt>
      <trkpt lat="45.82543" lon="3.37951">
        <ele>356</ele>
        <time>2011-08-30T01:29:44Z</time>
      </trkpt>
      <trkpt lat="45.82424" lon="3.3795">
        <ele>354</ele>
        <time>2011-08-30T01:30:00Z</time>
      </trkpt>
      <trkpt lat="45.82351" lon="3.37934">
        <ele>352</ele>
        <time>2011-08-30T01:30:10Z</time>
      </trkpt>
      <trkpt lat="45.82183" lon="3.37863">
        <ele>349</ele>
        <time>2011-08-30T01:30:33Z</time>
      </trkpt>
      <trkpt lat="45.82032" lon="3.37819">
        <ele>348</ele>
        <time>2011-08-30T01:30:54Z</time>
      </trkpt>
      <trkpt lat="45.81393" lon="3.3748">
        <ele>337</ele>
        <time>2011-08-30T01:32:25Z</time>
      </trkpt>
      <trkpt lat="45.81297" lon="3.37443">
        <ele>336</ele>
        <time>2011-08-30T01:32:38Z</time>
      </trkpt>
      <trkpt lat="45.81231" lon="3.37427">
        <ele>336</ele>
        <time>2011-08-30T01:32:47Z</time>
      </trkpt>
      <trkpt lat="45.81231" lon="3.37427">
        <ele>336</ele>
        <time>2011-08-30T01:32:48Z</time>
      </trkpt>
      <trkpt lat="45.8069" lon="3.37319">
        <ele>334</ele>
        <time>2011-08-30T01:34:01Z</time>
      </trkpt>
      <trkpt lat="45.80594" lon="3.37291">
        <ele>333</ele>
        <time>2011-08-30T01:34:14Z</time>
      </trkpt>
      <trkpt lat="45.80534" lon="3.37264">
        <ele>333</ele>
        <time>2011-08-30T01:34:22Z</time>
      </trkpt>
      <trkpt lat="45.80484" lon="3.37238">
        <ele>333</ele>
        <time>2011-08-30T01:34:29Z</time>
      </trkpt>
      <trkpt lat="45.80389" lon="3.37172">
        <ele>332</ele>
        <time>2011-08-30T01:34:43Z</time>
      </trkpt>
      <trkpt lat="45.79595" lon="3.36518">
        <ele>321</ele>
        <time>2011-08-30T01:36:46Z</time>
      </trkpt>
      <trkpt lat="45.79545" lon="3.36481">
        <ele>321</ele>
        <time>2011-08-30T01:36:54Z</time>
      </trkpt>
      <trkpt lat="45.79515" lon="3.36466">
        <ele>321</ele>
        <time>2011-08-30T01:36:59Z</time>
      </trkpt>
      <trkpt lat="45.79483" lon="3.36457">
        <ele>322</ele>
        <time>2011-08-30T01:37:04Z</time>
      </trkpt>
      <trkpt lat="45.79321" lon="3.36435">
        <ele>325</ele>
        <time>2011-08-30T01:37:33Z</time>
      </trkpt>
      <trkpt lat="45.79236" lon="3.36409">
        <ele>325</ele>
        <time>2011-08-30T01:37:46Z</time>
      </trkpt>
      <trkpt lat="45.78332" lon="3.36032">
        <ele>331</ele>
        <time>2011-08-30T01:40:05Z</time>
      </trkpt>
      <trkpt lat="45.78278" lon="3.36005">
        <ele>332</ele>
        <time>2011-08-30T01:40:15Z</time>
      </trkpt>
      <trkpt lat="45.77937" lon="3.35862">
        <ele>339</ele>
        <time>2011-08-30T01:41:19Z</time>
      </trkpt>
      <trkpt lat="45.77914" lon="3.35836">
        <ele>339</ele>
        <time>2011-08-30T01:41:25Z</time>
      </trkpt>
      <trkpt lat="45.77904" lon="3.35841">
        <ele>340</ele>
        <time>2011-08-30T01:41:27Z</time>
      </trkpt>
      <trkpt lat="45.77884" lon="3.3584">
        <ele>340</ele>
        <time>2011-08-30T01:41:32Z</time>
      </trkpt>
      <trkpt lat="45.7768" lon="3.35761">
        <ele>347</ele>
        <time>2011-08-30T01:42:15Z</time>
      </trkpt>
      <trkpt lat="45.77641" lon="3.35753">
        <ele>348</ele>
        <time>2011-08-30T01:42:23Z</time>
      </trkpt>
      <trkpt lat="45.77531" lon="3.35761">
        <ele>351</ele>
        <time>2011-08-30T01:42:44Z</time>
      </trkpt>
      <trkpt lat="45.77393" lon="3.35792">
        <ele>354</ele>
        <time>2011-08-30T01:43:10Z</time>
      </trkpt>
      <trkpt lat="45.77353" lon="3.35794">
        <ele>354</ele>
        <time>2011-08-30T01:43:17Z</time>
      </trkpt>
      <trkpt lat="45.77333" lon="3.3579">
        <ele>355</ele>
        <time>2011-08-30T01:43:21Z</time>
      </trkpt>
      <trkpt lat="45.77295" lon="3.35779">
        <ele>356</ele>
        <time>2011-08-30T01:43:28Z</time>
      </trkpt>
      <trkpt lat="45.76834" lon="3.35601">
        <ele>360</ele>
        <time>2011-08-30T01:44:42Z</time>
      </trkpt>
      <trkpt lat="45.76646" lon="3.35566">
        <ele>353</ele>
        <time>2011-08-30T01:45:07Z</time>
      </trkpt>
      <trkpt lat="45.7658" lon="3.35559">
        <ele>352</ele>
        <time>2011-08-30T01:45:16Z</time>
      </trkpt>
      <trkpt lat="45.76531" lon="3.35561">
        <ele>352</ele>
        <time>2011-08-30T01:45:22Z</time>
      </trkpt>
      <trkpt lat="45.76464" lon="3.35572">
        <ele>353</ele>
        <time>2011-08-30T01:45:35Z</time>
      </trkpt>
      <trkpt lat="45.76215" lon="3.3563">
        <ele>360</ele>
        <time>2011-08-30T01:46:24Z</time>
      </trkpt>
      <trkpt lat="45.76128" lon="3.35632">
        <ele>358</ele>
        <time>2011-08-30T01:46:36Z</time>
      </trkpt>
      <trkpt lat="45.7573" lon="3.35591">
        <ele>354</ele>
        <time>2011-08-30T01:47:29Z</time>
      </trkpt>
      <trkpt lat="45.75662" lon="3.3558">
        <ele>354</ele>
        <time>2011-08-30T01:47:40Z</time>
      </trkpt>
      <trkpt lat="45.75517" lon="3.35543">
        <ele>356</ele>
        <time>2011-08-30T01:48:03Z</time>
      </trkpt>
      <trkpt lat="45.75318" lon="3.35484">
        <ele>360</ele>
        <time>2011-08-30T01:48:39Z</time>
      </trkpt>
      <trkpt lat="45.75262" lon="3.35444">
        <ele>360</ele>
        <time>2011-08-30T01:48:48Z</time>
      </trkpt>
      <trkpt lat="45.75161" lon="3.35387">
        <ele>360</ele>
        <time>2011-08-30T01:49:02Z</time>
      </trkpt>
      <trkpt lat="45.75052" lon="3.35344">
        <ele>360</ele>
        <time>2011-08-30T01:49:17Z</time>
      </trkpt>
      <trkpt lat="45.74947" lon="3.35293">
        <ele>360</ele>
        <time>2011-08-30T01:49:32Z</time>
      </trkpt>
      <trkpt lat="45.74896" lon="3.35249">
        <ele>358</ele>
        <time>2011-08-30T01:49:40Z</time>
      </trkpt>
      <trkpt lat="45.74773" lon="3.35124">
        <ele>356</ele>
        <time>2011-08-30T01:50:00Z</time>
      </trkpt>
      <trkpt lat="45.74693" lon="3.35068">
        <ele>354</ele>
        <time>2011-08-30T01:50:12Z</time>
      </trkpt>
      <trkpt lat="45.74489" lon="3.34982">
        <ele>350</ele>
        <time>2011-08-30T01:50:41Z</time>
      </trkpt>
      <trkpt lat="45.74425" lon="3.3496">
        <ele>350</ele>
        <time>2011-08-30T01:50:50Z</time>
      </trkpt>
      <trkpt lat="45.74168" lon="3.34916">
        <ele>351</ele>
        <time>2011-08-30T01:51:26Z</time>
      </trkpt>
      <trkpt lat="45.7405" lon="3.34879">
        <ele>347</ele>
        <time>2011-08-30T01:51:43Z</time>
      </trkpt>
      <trkpt lat="45.73983" lon="3.3485">
        <ele>345</ele>
        <time>2011-08-30T01:51:52Z</time>
      </trkpt>
      <trkpt lat="45.73917" lon="3.34807">
        <ele>344</ele>
        <time>2011-08-30T01:52:02Z</time>
      </trkpt>
      <trkpt lat="45.73656" lon="3.34608">
        <ele>349</ele>
        <time>2011-08-30T01:52:53Z</time>
      </trkpt>
      <trkpt lat="45.73493" lon="3.34509">
        <ele>351</ele>
        <time>2011-08-30T01:53:22Z</time>
      </trkpt>
      <trkpt lat="45.73454" lon="3.34475">
        <ele>351</ele>
        <time>2011-08-30T01:53:28Z</time>
      </trkpt>
      <trkpt lat="45.73416" lon="3.34454">
        <ele>351</ele>
        <time>2011-08-30T01:53:33Z</time>
      </trkpt>
      <trkpt lat="45.73392" lon="3.34429">
        <ele>351</ele>
        <time>2011-08-30T01:53:37Z</time>
      </trkpt>
      <trkpt lat="45.73389" lon="3.34408">
        <ele>351</ele>
        <time>2011-08-30T01:53:39Z</time>
      </trkpt>
      <trkpt lat="45.73373" lon="3.34395">
        <ele>351</ele>
        <time>2011-08-30T01:53:41Z</time>
      </trkpt>
      <trkpt lat="45.73355" lon="3.34404">
        <ele>351</ele>
        <time>2011-08-30T01:53:44Z</time>
      </trkpt>
      <trkpt lat="45.73349" lon="3.3442">
        <ele>351</ele>
        <time>2011-08-30T01:53:46Z</time>
      </trkpt>
      <trkpt lat="45.7335" lon="3.34438">
        <ele>351</ele>
        <time>2011-08-30T01:53:47Z</time>
      </trkpt>
      <trkpt lat="45.73362" lon="3.34455">
        <ele>351</ele>
        <time>2011-08-30T01:53:50Z</time>
      </trkpt>
      <trkpt lat="45.73386" lon="3.34456">
        <ele>351</ele>
        <time>2011-08-30T01:53:53Z</time>
      </trkpt>
      <trkpt lat="45.73437" lon="3.34473">
        <ele>351</ele>
        <time>2011-08-30T01:54:00Z</time>
      </trkpt>
      <trkpt lat="45.73437" lon="3.34473">
        <ele>351</ele>
        <time>2011-08-30T01:54:01Z</time>
      </trkpt>
      <trkpt lat="45.73459" lon="3.34482">
        <ele>350</ele>
        <time>2011-08-30T01:54:04Z</time>
      </trkpt>
      <trkpt lat="45.7351" lon="3.3452">
        <ele>350</ele>
        <time>2011-08-30T01:54:12Z</time>
      </trkpt>
      <trkpt lat="45.73636" lon="3.34594">
        <ele>350</ele>
        <time>2011-08-30T01:54:30Z</time>
      </trkpt>
      <trkpt lat="45.73917" lon="3.34807">
        <ele>344</ele>
        <time>2011-08-30T01:55:12Z</time>
      </trkpt>
      <trkpt lat="45.73998" lon="3.34858">
        <ele>346</ele>
        <time>2011-08-30T01:55:30Z</time>
      </trkpt>
      <trkpt lat="45.74168" lon="3.34916">
        <ele>351</ele>
        <time>2011-08-30T01:56:04Z</time>
      </trkpt>
      <trkpt lat="45.74425" lon="3.3496">
        <ele>351</ele>
        <time>2011-08-30T01:56:39Z</time>
      </trkpt>
      <trkpt lat="45.74489" lon="3.34982">
        <ele>351</ele>
        <time>2011-08-30T01:56:49Z</time>
      </trkpt>
      <trkpt lat="45.74693" lon="3.35068">
        <ele>354</ele>
        <time>2011-08-30T01:57:23Z</time>
      </trkpt>
      <trkpt lat="45.74773" lon="3.35124">
        <ele>355</ele>
        <time>2011-08-30T01:57:39Z</time>
      </trkpt>
      <trkpt lat="45.74896" lon="3.35249">
        <ele>358</ele>
        <time>2011-08-30T01:58:05Z</time>
      </trkpt>
      <trkpt lat="45.74947" lon="3.35293">
        <ele>358</ele>
        <time>2011-08-30T01:58:14Z</time>
      </trkpt>
      <trkpt lat="45.75052" lon="3.35344">
        <ele>360</ele>
        <time>2011-08-30T01:58:32Z</time>
      </trkpt>
      <trkpt lat="45.75161" lon="3.35387">
        <ele>360</ele>
        <time>2011-08-30T01:58:47Z</time>
      </trkpt>
      <trkpt lat="45.75243" lon="3.35433">
        <ele>360</ele>
        <time>2011-08-30T01:58:59Z</time>
      </trkpt>
      <trkpt lat="45.75277" lon="3.35455">
        <ele>360</ele>
        <time>2011-08-30T01:59:04Z</time>
      </trkpt>
      <trkpt lat="45.75303" lon="3.35496">
        <ele>360</ele>
        <time>2011-08-30T01:59:09Z</time>
      </trkpt>
      <trkpt lat="45.75307" lon="3.35507">
        <ele>360</ele>
        <time>2011-08-30T01:59:11Z</time>
      </trkpt>
      <trkpt lat="45.75312" lon="3.35509">
        <ele>360</ele>
        <time>2011-08-30T01:59:11Z</time>
      </trkpt>
      <trkpt lat="45.7532" lon="3.35502">
        <ele>360</ele>
        <time>2011-08-30T01:59:12Z</time>
      </trkpt>
      <trkpt lat="45.75322" lon="3.35492">
        <ele>360</ele>
        <time>2011-08-30T01:59:13Z</time>
      </trkpt>
      <trkpt lat="45.75315" lon="3.35481">
        <ele>360</ele>
        <time>2011-08-30T01:59:15Z</time>
      </trkpt>
      <trkpt lat="45.75283" lon="3.35457">
        <ele>360</ele>
        <time>2011-08-30T01:59:20Z</time>
      </trkpt>
      <trkpt lat="45.75161" lon="3.35387">
        <ele>360</ele>
        <time>2011-08-30T01:59:37Z</time>
      </trkpt>
      <trkpt lat="45.75052" lon="3.35344">
        <ele>360</ele>
        <time>2011-08-30T01:59:52Z</time>
      </trkpt>
      <trkpt lat="45.74947" lon="3.35293">
        <ele>360</ele>
        <time>2011-08-30T02:00:07Z</time>
      </trkpt>
      <trkpt lat="45.74896" lon="3.35249">
        <ele>358</ele>
        <time>2011-08-30T02:00:15Z</time>
      </trkpt>
      <trkpt lat="45.74773" lon="3.35124">
        <ele>356</ele>
        <time>2011-08-30T02:00:35Z</time>
      </trkpt>
      <trkpt lat="45.74693" lon="3.35068">
        <ele>354</ele>
        <time>2011-08-30T02:00:47Z</time>
      </trkpt>
      <trkpt lat="45.74489" lon="3.34982">
        <ele>350</ele>
        <time>2011-08-30T02:01:16Z</time>
      </trkpt>
      <trkpt lat="45.74425" lon="3.3496">
        <ele>350</ele>
        <time>2011-08-30T02:01:25Z</time>
      </trkpt>
      <trkpt lat="45.74168" lon="3.34916">
        <ele>351</ele>
        <time>2011-08-30T02:02:01Z</time>
      </trkpt>
      <trkpt lat="45.73998" lon="3.34858">
        <ele>345</ele>
        <time>2011-08-30T02:02:25Z</time>
      </trkpt>
      <trkpt lat="45.73917" lon="3.34807">
        <ele>346</ele>
        <time>2011-08-30T02:02:39Z</time>
      </trkpt>
      <trkpt lat="45.73636" lon="3.34594">
        <ele>350</ele>
        <time>2011-08-30T02:03:31Z</time>
      </trkpt>
      <trkpt lat="45.7351" lon="3.3452">
        <ele>351</ele>
        <time>2011-08-30T02:03:51Z</time>
      </trkpt>
      <trkpt lat="45.73454" lon="3.34475">
        <ele>351</ele>
        <time>2011-08-30T02:04:00Z</time>
      </trkpt>
      <trkpt lat="45.73416" lon="3.34454">
        <ele>351</ele>
        <time>2011-08-30T02:04:06Z</time>
      </trkpt>
      <trkpt lat="45.73392" lon="3.34429">
        <ele>351</ele>
        <time>2011-08-30T02:04:11Z</time>
      </trkpt>
      <trkpt lat="45.73389" lon="3.34408">
        <ele>351</ele>
        <time>2011-08-30T02:04:14Z</time>
      </trkpt>
      <trkpt lat="45.73379" lon="3.34397">
        <ele>352</ele>
        <time>2011-08-30T02:04:16Z</time>
      </trkpt>
      <trkpt lat="45.73368" lon="3.34395">
        <ele>352</ele>
        <time>2011-08-30T02:04:18Z</time>
      </trkpt>
      <trkpt lat="45.73359" lon="3.344">
        <ele>352</ele>
        <time>2011-08-30T02:04:20Z</time>
      </trkpt>
      <trkpt lat="45.73337" lon="3.3438">
        <ele>353</ele>
        <time>2011-08-30T02:04:24Z</time>
      </trkpt>
      <trkpt lat="45.73269" lon="3.34196">
        <ele>345</ele>
        <time>2011-08-30T02:04:44Z</time>
      </trkpt>
      <trkpt lat="45.73241" lon="3.34145">
        <ele>344</ele>
        <time>2011-08-30T02:04:50Z</time>
      </trkpt>
      <trkpt lat="45.73205" lon="3.341">
        <ele>344</ele>
        <time>2011-08-30T02:04:56Z</time>
      </trkpt>
      <trkpt lat="45.73171" lon="3.34069">
        <ele>344</ele>
        <time>2011-08-30T02:05:03Z</time>
      </trkpt>
      <trkpt lat="45.73133" lon="3.34045">
        <ele>345</ele>
        <time>2011-08-30T02:05:10Z</time>
      </trkpt>
      <trkpt lat="45.72992" lon="3.33987">
        <ele>347</ele>
        <time>2011-08-30T02:05:34Z</time>
      </trkpt>
      <trkpt lat="45.72964" lon="3.33969">
        <ele>347</ele>
        <time>2011-08-30T02:05:39Z</time>
      </trkpt>
      <trkpt lat="45.72954" lon="3.33953">
        <ele>347</ele>
        <time>2011-08-30T02:05:41Z</time>
      </trkpt>
      <trkpt lat="45.72946" lon="3.33916">
        <ele>348</ele>
        <time>2011-08-30T02:05:46Z</time>
      </trkpt>
      <trkpt lat="45.72888" lon="3.33868">
        <ele>349</ele>
        <time>2011-08-30T02:05:57Z</time>
      </trkpt>
      <trkpt lat="45.72794" lon="3.3378">
        <ele>347</ele>
        <time>2011-08-30T02:06:12Z</time>
      </trkpt>
      <trkpt lat="45.72551" lon="3.33509">
        <ele>350</ele>
        <time>2011-08-30T02:07:01Z</time>
      </trkpt>
      <trkpt lat="45.72511" lon="3.33459">
        <ele>350</ele>
        <time>2011-08-30T02:07:10Z</time>
      </trkpt>
      <trkpt lat="45.72507" lon="3.33465">
        <ele>351</ele>
        <time>2011-08-30T02:07:11Z</time>
      </trkpt>
      <trkpt lat="45.72507" lon="3.33465">
        <ele>351</ele>
        <time>2011-08-30T02:07:12Z</time>
      </trkpt>
      <trkpt lat="45.72511" lon="3.33459">
        <ele>351</ele>
        <time>2011-08-30T02:07:13Z</time>
      </trkpt>
      <trkpt lat="45.72458" lon="3.33383">
        <ele>352</ele>
        <time>2011-08-30T02:07:27Z</time>
      </trkpt>
      <trkpt lat="45.72395" lon="3.33278">
        <ele>355</ele>
        <time>2011-08-30T02:07:45Z</time>
      </trkpt>
      <trkpt lat="45.72369" lon="3.3321">
        <ele>356</ele>
        <time>2011-08-30T02:07:55Z</time>
      </trkpt>
      <trkpt lat="45.72323" lon="3.33013">
        <ele>359</ele>
        <time>2011-08-30T02:08:21Z</time>
      </trkpt>
      <trkpt lat="45.72301" lon="3.32954">
        <ele>359</ele>
        <time>2011-08-30T02:08:29Z</time>
      </trkpt>
      <trkpt lat="45.72277" lon="3.32908">
        <ele>360</ele>
        <time>2011-08-30T02:08:35Z</time>
      </trkpt>
      <trkpt lat="45.72178" lon="3.32729">
        <ele>362</ele>
        <time>2011-08-30T02:09:01Z</time>
      </trkpt>
      <trkpt lat="45.72041" lon="3.32563">
        <ele>365</ele>
        <time>2011-08-30T02:09:33Z</time>
      </trkpt>
      <trkpt lat="45.72019" lon="3.3253">
        <ele>365</ele>
        <time>2011-08-30T02:09:38Z</time>
      </trkpt>
      <trkpt lat="45.71993" lon="3.32479">
        <ele>365</ele>
        <time>2011-08-30T02:09:44Z</time>
      </trkpt>
      <trkpt lat="45.71973" lon="3.32429">
        <ele>366</ele>
        <time>2011-08-30T02:09:51Z</time>
      </trkpt>
      <trkpt lat="45.71962" lon="3.32436">
        <ele>365</ele>
        <time>2011-08-30T02:09:52Z</time>
      </trkpt>
      <trkpt lat="45.71942" lon="3.32438">
        <ele>365</ele>
        <time>2011-08-30T02:09:55Z</time>
      </trkpt>
      <trkpt lat="45.71847" lon="3.32439">
        <ele>363</ele>
        <time>2011-08-30T02:10:08Z</time>
      </trkpt>
      <trkpt lat="45.7181" lon="3.32433">
        <ele>363</ele>
        <time>2011-08-30T02:10:13Z</time>
      </trkpt>
      <trkpt lat="45.71182" lon="3.3217">
        <ele>368</ele>
        <time>2011-08-30T02:11:52Z</time>
      </trkpt>
      <trkpt lat="45.7112" lon="3.3214">
        <ele>369</ele>
        <time>2011-08-30T02:12:05Z</time>
      </trkpt>
      <trkpt lat="45.71071" lon="3.32103">
        <ele>371</ele>
        <time>2011-08-30T02:12:15Z</time>
      </trkpt>
      <trkpt lat="45.71033" lon="3.32056">
        <ele>372</ele>
        <time>2011-08-30T02:12:25Z</time>
      </trkpt>
      <trkpt lat="45.70863" lon="3.31787">
        <ele>378</ele>
        <time>2011-08-30T02:13:13Z</time>
      </trkpt>
      <trkpt lat="45.70732" lon="3.31642">
        <ele>385</ele>
        <time>2011-08-30T02:13:52Z</time>
      </trkpt>
      <trkpt lat="45.70463" lon="3.31323">
        <ele>396</ele>
        <time>2011-08-30T02:15:05Z</time>
      </trkpt>
      <trkpt lat="45.70393" lon="3.31257">
        <ele>398</ele>
        <time>2011-08-30T02:15:23Z</time>
      </trkpt>
      <trkpt lat="45.70224" lon="3.31153">
        <ele>405</ele>
        <time>2011-08-30T02:16:02Z</time>
      </trkpt>
      <trkpt lat="45.70215" lon="3.31141">
        <ele>405</ele>
        <time>2011-08-30T02:16:05Z</time>
      </trkpt>
      <trkpt lat="45.70184" lon="3.31118">
        <ele>407</ele>
        <time>2011-08-30T02:16:15Z</time>
      </trkpt>
      <trkpt lat="45.70147" lon="3.31067">
        <ele>411</ele>
        <time>2011-08-30T02:16:29Z</time>
      </trkpt>
      <trkpt lat="45.70126" lon="3.31027">
        <ele>413</ele>
        <time>2011-08-30T02:16:41Z</time>
      </trkpt>
      <trkpt lat="45.70111" lon="3.30988">
        <ele>416</ele>
        <time>2011-08-30T02:16:51Z</time>
      </trkpt>
      <trkpt lat="45.70091" lon="3.30877">
        <ele>423</ele>
        <time>2011-08-30T02:17:18Z</time>
      </trkpt>
      <trkpt lat="45.70093" lon="3.30821">
        <ele>425</ele>
        <time>2011-08-30T02:17:29Z</time>
      </trkpt>
      <trkpt lat="45.70104" lon="3.30758">
        <ele>428</ele>
        <time>2011-08-30T02:17:42Z</time>
      </trkpt>
      <trkpt lat="45.70109" lon="3.30705">
        <ele>431</ele>
        <time>2011-08-30T02:17:53Z</time>
      </trkpt>
      <trkpt lat="45.70108" lon="3.30662">
        <ele>432</ele>
        <time>2011-08-30T02:18:01Z</time>
      </trkpt>
      <trkpt lat="45.70094" lon="3.30599">
        <ele>434</ele>
        <time>2011-08-30T02:18:12Z</time>
      </trkpt>
      <trkpt lat="45.70093" lon="3.30579">
        <ele>435</ele>
        <time>2011-08-30T02:18:15Z</time>
      </trkpt>
      <trkpt lat="45.7003" lon="3.30413">
        <ele>441</ele>
        <time>2011-08-30T02:18:47Z</time>
      </trkpt>
      <trkpt lat="45.70013" lon="3.30379">
        <ele>441</ele>
        <time>2011-08-30T02:18:52Z</time>
      </trkpt>
      <trkpt lat="45.69914" lon="3.30136">
        <ele>444</ele>
        <time>2011-08-30T02:19:24Z</time>
      </trkpt>
      <trkpt lat="45.69887" lon="3.30092">
        <ele>447</ele>
        <time>2011-08-30T02:19:38Z</time>
      </trkpt>
      <trkpt lat="45.69839" lon="3.30038">
        <ele>453</ele>
        <time>2011-08-30T02:20:00Z</time>
      </trkpt>
      <trkpt lat="45.69792" lon="3.30005">
        <ele>456</ele>
        <time>2011-08-30T02:20:14Z</time>
      </trkpt>
      <trkpt lat="45.6958" lon="3.2991">
        <ele>469</ele>
        <time>2011-08-30T02:21:15Z</time>
      </trkpt>
      <trkpt lat="45.69521" lon="3.29903">
        <ele>472</ele>
        <time>2011-08-30T02:21:30Z</time>
      </trkpt>
      <trkpt lat="45.69386" lon="3.29924">
        <ele>479</ele>
        <time>2011-08-30T02:22:05Z</time>
      </trkpt>
      <trkpt lat="45.69347" lon="3.29918">
        <ele>481</ele>
        <time>2011-08-30T02:22:15Z</time>
      </trkpt>
      <trkpt lat="45.6931" lon="3.29901">
        <ele>483</ele>
        <time>2011-08-30T02:22:25Z</time>
      </trkpt>
      <trkpt lat="45.69293" lon="3.29888">
        <ele>484</ele>
        <time>2011-08-30T02:22:30Z</time>
      </trkpt>
      <trkpt lat="45.69293" lon="3.29888">
        <ele>484</ele>
        <time>2011-08-30T02:22:31Z</time>
      </trkpt>
      <trkpt lat="45.69257" lon="3.29854">
        <ele>486</ele>
        <time>2011-08-30T02:22:42Z</time>
      </trkpt>
      <trkpt lat="45.69225" lon="3.29802">
        <ele>489</ele>
        <time>2011-08-30T02:22:55Z</time>
      </trkpt>
      <trkpt lat="45.69183" lon="3.29679">
        <ele>496</ele>
        <time>2011-08-30T02:23:24Z</time>
      </trkpt>
      <trkpt lat="45.6916" lon="3.29631">
        <ele>499</ele>
        <time>2011-08-30T02:23:37Z</time>
      </trkpt>
      <trkpt lat="45.68941" lon="3.29327">
        <ele>523</ele>
        <time>2011-08-30T02:25:15Z</time>
      </trkpt>
      <trkpt lat="45.68904" lon="3.29256">
        <ele>528</ele>
        <time>2011-08-30T02:25:36Z</time>
      </trkpt>
      <trkpt lat="45.68869" lon="3.29151">
        <ele>535</ele>
        <time>2011-08-30T02:26:03Z</time>
      </trkpt>
      <trkpt lat="45.68741" lon="3.28664">
        <ele>547</ele>
        <time>2011-08-30T02:27:21Z</time>
      </trkpt>
      <trkpt lat="45.68725" lon="3.28617">
        <ele>548</ele>
        <time>2011-08-30T02:27:30Z</time>
      </trkpt>
      <trkpt lat="45.687" lon="3.2857">
        <ele>550</ele>
        <time>2011-08-30T02:27:40Z</time>
      </trkpt>
      <trkpt lat="45.68683" lon="3.28547">
        <ele>552</ele>
        <time>2011-08-30T02:27:46Z</time>
      </trkpt>
      <trkpt lat="45.68663" lon="3.28523">
        <ele>553</ele>
        <time>2011-08-30T02:27:54Z</time>
      </trkpt>
      <trkpt lat="45.68627" lon="3.28491">
        <ele>557</ele>
        <time>2011-08-30T02:28:08Z</time>
      </trkpt>
      <trkpt lat="45.68478" lon="3.28377">
        <ele>570</ele>
        <time>2011-08-30T02:29:01Z</time>
      </trkpt>
      <trkpt lat="45.68449" lon="3.2836">
        <ele>571</ele>
        <time>2011-08-30T02:29:08Z</time>
      </trkpt>
      <trkpt lat="45.68413" lon="3.2835">
        <ele>572</ele>
        <time>2011-08-30T02:29:16Z</time>
      </trkpt>
      <trkpt lat="45.68392" lon="3.28351">
        <ele>573</ele>
        <time>2011-08-30T02:29:21Z</time>
      </trkpt>
      <trkpt lat="45.68296" lon="3.28401">
        <ele>577</ele>
        <time>2011-08-30T02:29:43Z</time>
      </trkpt>
      <trkpt lat="45.6827" lon="3.28407">
        <ele>578</ele>
        <time>2011-08-30T02:29:50Z</time>
      </trkpt>
      <trkpt lat="45.68248" lon="3.28405">
        <ele>579</ele>
        <time>2011-08-30T02:29:56Z</time>
      </trkpt>
      <trkpt lat="45.68207" lon="3.28379">
        <ele>582</ele>
        <time>2011-08-30T02:30:08Z</time>
      </trkpt>
      <trkpt lat="45.67993" lon="3.28142">
        <ele>563</ele>
        <time>2011-08-30T02:30:44Z</time>
      </trkpt>
      <trkpt lat="45.67856" lon="3.27924">
        <ele>550</ele>
        <time>2011-08-30T02:31:11Z</time>
      </trkpt>
      <trkpt lat="45.67817" lon="3.27875">
        <ele>546</ele>
        <time>2011-08-30T02:31:18Z</time>
      </trkpt>
      <trkpt lat="45.67777" lon="3.27844">
        <ele>543</ele>
        <time>2011-08-30T02:31:24Z</time>
      </trkpt>
      <trkpt lat="45.67688" lon="3.27801">
        <ele>538</ele>
        <time>2011-08-30T02:31:37Z</time>
      </trkpt>
      <trkpt lat="45.6764" lon="3.27758">
        <ele>536</ele>
        <time>2011-08-30T02:31:45Z</time>
      </trkpt>
      <trkpt lat="45.67384" lon="3.27397">
        <ele>525</ele>
        <time>2011-08-30T02:32:33Z</time>
      </trkpt>
      <trkpt lat="45.67324" lon="3.27305">
        <ele>522</ele>
        <time>2011-08-30T02:32:44Z</time>
      </trkpt>
      <trkpt lat="45.67297" lon="3.27246">
        <ele>521</ele>
        <time>2011-08-30T02:32:51Z</time>
      </trkpt>
      <trkpt lat="45.67278" lon="3.27189">
        <ele>519</ele>
        <time>2011-08-30T02:32:57Z</time>
      </trkpt>
      <trkpt lat="45.67263" lon="3.2712">
        <ele>517</ele>
        <time>2011-08-30T02:33:04Z</time>
      </trkpt>
      <trkpt lat="45.67252" lon="3.27018">
        <ele>515</ele>
        <time>2011-08-30T02:33:13Z</time>
      </trkpt>
      <trkpt lat="45.67274" lon="3.26646">
        <ele>508</ele>
        <time>2011-08-30T02:33:48Z</time>
      </trkpt>
      <trkpt lat="45.67272" lon="3.26581">
        <ele>505</ele>
        <time>2011-08-30T02:33:54Z</time>
      </trkpt>
      <trkpt lat="45.67261" lon="3.26491">
        <ele>502</ele>
        <time>2011-08-30T02:34:03Z</time>
      </trkpt>
      <trkpt lat="45.6721" lon="3.26269">
        <ele>492</ele>
        <time>2011-08-30T02:34:24Z</time>
      </trkpt>
      <trkpt lat="45.67182" lon="3.262">
        <ele>488</ele>
        <time>2011-08-30T02:34:32Z</time>
      </trkpt>
      <trkpt lat="45.67143" lon="3.2614">
        <ele>485</ele>
        <time>2011-08-30T02:34:40Z</time>
      </trkpt>
      <trkpt lat="45.67127" lon="3.26122">
        <ele>483</ele>
        <time>2011-08-30T02:34:42Z</time>
      </trkpt>
      <trkpt lat="45.67056" lon="3.26049">
        <ele>478</ele>
        <time>2011-08-30T02:34:54Z</time>
      </trkpt>
      <trkpt lat="45.66954" lon="3.25954">
        <ele>472</ele>
        <time>2011-08-30T02:35:10Z</time>
      </trkpt>
      <trkpt lat="45.66854" lon="3.25903">
        <ele>468</ele>
        <time>2011-08-30T02:35:24Z</time>
      </trkpt>
      <trkpt lat="45.6677" lon="3.25845">
        <ele>463</ele>
        <time>2011-08-30T02:35:37Z</time>
      </trkpt>
      <trkpt lat="45.66679" lon="3.2584">
        <ele>462</ele>
        <time>2011-08-30T02:35:49Z</time>
      </trkpt>
      <trkpt lat="45.66506" lon="3.25762">
        <ele>458</ele>
        <time>2011-08-30T02:36:13Z</time>
      </trkpt>
      <trkpt lat="45.66461" lon="3.25728">
        <ele>458</ele>
        <time>2011-08-30T02:36:21Z</time>
      </trkpt>
      <trkpt lat="45.66339" lon="3.25616">
        <ele>460</ele>
        <time>2011-08-30T02:36:44Z</time>
      </trkpt>
      <trkpt lat="45.66257" lon="3.25551">
        <ele>460</ele>
        <time>2011-08-30T02:36:57Z</time>
      </trkpt>
      <trkpt lat="45.66175" lon="3.25503">
        <ele>460</ele>
        <time>2011-08-30T02:37:10Z</time>
      </trkpt>
      <trkpt lat="45.66113" lon="3.25476">
        <ele>461</ele>
        <time>2011-08-30T02:37:20Z</time>
      </trkpt>
      <trkpt lat="45.66007" lon="3.2545">
        <ele>462</ele>
        <time>2011-08-30T02:37:36Z</time>
      </trkpt>
      <trkpt lat="45.65477" lon="3.25409">
        <ele>446</ele>
        <time>2011-08-30T02:38:47Z</time>
      </trkpt>
      <trkpt lat="45.65448" lon="3.25409">
        <ele>444</ele>
        <time>2011-08-30T02:38:51Z</time>
      </trkpt>
      <trkpt lat="45.65417" lon="3.25416">
        <ele>443</ele>
        <time>2011-08-30T02:38:55Z</time>
      </trkpt>
      <trkpt lat="45.65336" lon="3.25453">
        <ele>440</ele>
        <time>2011-08-30T02:39:07Z</time>
      </trkpt>
      <trkpt lat="45.65283" lon="3.25465">
        <ele>442</ele>
        <time>2011-08-30T02:39:19Z</time>
      </trkpt>
      <trkpt lat="45.65249" lon="3.25463">
        <ele>443</ele>
        <time>2011-08-30T02:39:27Z</time>
      </trkpt>
      <trkpt lat="45.65213" lon="3.25451">
        <ele>445</ele>
        <time>2011-08-30T02:39:35Z</time>
      </trkpt>
      <trkpt lat="45.6517" lon="3.25425">
        <ele>447</ele>
        <time>2011-08-30T02:39:47Z</time>
      </trkpt>
      <trkpt lat="45.65145" lon="3.25403">
        <ele>448</ele>
        <time>2011-08-30T02:39:54Z</time>
      </trkpt>
      <trkpt lat="45.64946" lon="3.2516">
        <ele>461</ele>
        <time>2011-08-30T02:40:59Z</time>
      </trkpt>
      <trkpt lat="45.64866" lon="3.25069">
        <ele>465</ele>
        <time>2011-08-30T02:41:22Z</time>
      </trkpt>
      <trkpt lat="45.64825" lon="3.25013">
        <ele>466</ele>
        <time>2011-08-30T02:41:33Z</time>
      </trkpt>
      <trkpt lat="45.64774" lon="3.24963">
        <ele>468</ele>
        <time>2011-08-30T02:41:45Z</time>
      </trkpt>
      <trkpt lat="45.64526" lon="3.24675">
        <ele>477</ele>
        <time>2011-08-30T02:42:49Z</time>
      </trkpt>
      <trkpt lat="45.64512" lon="3.24644">
        <ele>477</ele>
        <time>2011-08-30T02:42:54Z</time>
      </trkpt>
      <trkpt lat="45.64502" lon="3.24589">
        <ele>478</ele>
        <time>2011-08-30T02:43:02Z</time>
      </trkpt>
      <trkpt lat="45.64435" lon="3.24595">
        <ele>480</ele>
        <time>2011-08-30T02:43:14Z</time>
      </trkpt>
      <trkpt lat="45.64419" lon="3.2443">
        <ele>478</ele>
        <time>2011-08-30T02:43:30Z</time>
      </trkpt>
      <trkpt lat="45.64412" lon="3.24422">
        <ele>477</ele>
        <time>2011-08-30T02:43:31Z</time>
      </trkpt>
      <trkpt lat="45.64356" lon="3.24398">
        <ele>475</ele>
        <time>2011-08-30T02:43:39Z</time>
      </trkpt>
      <trkpt lat="45.64316" lon="3.2436">
        <ele>474</ele>
        <time>2011-08-30T02:43:45Z</time>
      </trkpt>
      <trkpt lat="45.64334" lon="3.24285">
        <ele>471</ele>
        <time>2011-08-30T02:43:53Z</time>
      </trkpt>
      <trkpt lat="45.64331" lon="3.24266">
        <ele>471</ele>
        <time>2011-08-30T02:43:55Z</time>
      </trkpt>
      <trkpt lat="45.64321" lon="3.2425">
        <ele>470</ele>
        <time>2011-08-30T02:43:57Z</time>
      </trkpt>
      <trkpt lat="45.64307" lon="3.24245">
        <ele>470</ele>
        <time>2011-08-30T02:43:58Z</time>
      </trkpt>
      <trkpt lat="45.64286" lon="3.24247">
        <ele>469</ele>
        <time>2011-08-30T02:44:01Z</time>
      </trkpt>
      <trkpt lat="45.64226" lon="3.24287">
        <ele>467</ele>
        <time>2011-08-30T02:44:10Z</time>
      </trkpt>
      <trkpt lat="45.64216" lon="3.24288">
        <ele>466</ele>
        <time>2011-08-30T02:44:11Z</time>
      </trkpt>
      <trkpt lat="45.64208" lon="3.24263">
        <ele>465</ele>
        <time>2011-08-30T02:44:14Z</time>
      </trkpt>
      <trkpt lat="45.64205" lon="3.2422">
        <ele>464</ele>
        <time>2011-08-30T02:44:18Z</time>
      </trkpt>
      <trkpt lat="45.64228" lon="3.2408">
        <ele>459</ele>
        <time>2011-08-30T02:44:31Z</time>
      </trkpt>
      <trkpt lat="45.64228" lon="3.2396">
        <ele>459</ele>
        <time>2011-08-30T02:44:44Z</time>
      </trkpt>
      <trkpt lat="45.64172" lon="3.2376">
        <ele>461</ele>
        <time>2011-08-30T02:45:08Z</time>
      </trkpt>
      <trkpt lat="45.64165" lon="3.23724">
        <ele>460</ele>
        <time>2011-08-30T02:45:11Z</time>
      </trkpt>
      <trkpt lat="45.64163" lon="3.2369">
        <ele>460</ele>
        <time>2011-08-30T02:45:14Z</time>
      </trkpt>
      <trkpt lat="45.64168" lon="3.2363">
        <ele>460</ele>
        <time>2011-08-30T02:45:20Z</time>
      </trkpt>
      <trkpt lat="45.64158" lon="3.23614">
        <ele>460</ele>
        <time>2011-08-30T02:45:24Z</time>
      </trkpt>
      <trkpt lat="45.64145" lon="3.23618">
        <ele>461</ele>
        <time>2011-08-30T02:45:27Z</time>
      </trkpt>
      <trkpt lat="45.64131" lon="3.2361">
        <ele>462</ele>
        <time>2011-08-30T02:45:31Z</time>
      </trkpt>
      <trkpt lat="45.64122" lon="3.23598">
        <ele>462</ele>
        <time>2011-08-30T02:45:34Z</time>
      </trkpt>
      <trkpt lat="45.64043" lon="3.2344">
        <ele>470</ele>
        <time>2011-08-30T02:46:10Z</time>
      </trkpt>
      <trkpt lat="45.64023" lon="3.23369">
        <ele>472</ele>
        <time>2011-08-30T02:46:23Z</time>
      </trkpt>
      <trkpt lat="45.64017" lon="3.23292">
        <ele>475</ele>
        <time>2011-08-30T02:46:36Z</time>
      </trkpt>
      <trkpt lat="45.64007" lon="3.23226">
        <ele>477</ele>
        <time>2011-08-30T02:46:48Z</time>
      </trkpt>
      <trkpt lat="45.63996" lon="3.23191">
        <ele>478</ele>
        <time>2011-08-30T02:46:54Z</time>
      </trkpt>
      <trkpt lat="45.63979" lon="3.23154">
        <ele>480</ele>
        <time>2011-08-30T02:47:02Z</time>
      </trkpt>
      <trkpt lat="45.63769" lon="3.22846">
        <ele>487</ele>
        <time>2011-08-30T02:47:59Z</time>
      </trkpt>
      <trkpt lat="45.63751" lon="3.22825">
        <ele>486</ele>
        <time>2011-08-30T02:48:02Z</time>
      </trkpt>
      <trkpt lat="45.6372" lon="3.22805">
        <ele>485</ele>
        <time>2011-08-30T02:48:07Z</time>
      </trkpt>
      <trkpt lat="45.63694" lon="3.22797">
        <ele>484</ele>
        <time>2011-08-30T02:48:10Z</time>
      </trkpt>
      <trkpt lat="45.63603" lon="3.22806">
        <ele>482</ele>
        <time>2011-08-30T02:48:22Z</time>
      </trkpt>
      <trkpt lat="45.63572" lon="3.228">
        <ele>480</ele>
        <time>2011-08-30T02:48:26Z</time>
      </trkpt>
      <trkpt lat="45.6355" lon="3.22789">
        <ele>479</ele>
        <time>2011-08-30T02:48:30Z</time>
      </trkpt>
      <trkpt lat="45.63526" lon="3.22768">
        <ele>478</ele>
        <time>2011-08-30T02:48:33Z</time>
      </trkpt>
      <trkpt lat="45.63319" lon="3.22547">
        <ele>467</ele>
        <time>2011-08-30T02:49:08Z</time>
      </trkpt>
      <trkpt lat="45.63319" lon="3.22547">
        <ele>467</ele>
        <time>2011-08-30T02:49:09Z</time>
      </trkpt>
      <trkpt lat="45.63247" lon="3.22473">
        <ele>462</ele>
        <time>2011-08-30T02:49:21Z</time>
      </trkpt>
      <trkpt lat="45.6322" lon="3.22461">
        <ele>461</ele>
        <time>2011-08-30T02:49:24Z</time>
      </trkpt>
      <trkpt lat="45.63191" lon="3.22461">
        <ele>460</ele>
        <time>2011-08-30T02:49:28Z</time>
      </trkpt>
      <trkpt lat="45.63167" lon="3.22472">
        <ele>459</ele>
        <time>2011-08-30T02:49:32Z</time>
      </trkpt>
      <trkpt lat="45.63111" lon="3.22536">
        <ele>457</ele>
        <time>2011-08-30T02:49:41Z</time>
      </trkpt>
      <trkpt lat="45.63082" lon="3.22556">
        <ele>455</ele>
        <time>2011-08-30T02:49:46Z</time>
      </trkpt>
      <trkpt lat="45.63062" lon="3.22562">
        <ele>454</ele>
        <time>2011-08-30T02:49:48Z</time>
      </trkpt>
      <trkpt lat="45.62804" lon="3.22592">
        <ele>441</ele>
        <time>2011-08-30T02:50:23Z</time>
      </trkpt>
      <trkpt lat="45.62733" lon="3.22623">
        <ele>440</ele>
        <time>2011-08-30T02:50:33Z</time>
      </trkpt>
      <trkpt lat="45.6269" lon="3.22633">
        <ele>440</ele>
        <time>2011-08-30T02:50:39Z</time>
      </trkpt>
      <trkpt lat="45.62664" lon="3.22624">
        <ele>437</ele>
        <time>2011-08-30T02:50:42Z</time>
      </trkpt>
      <trkpt lat="45.62653" lon="3.22613">
        <ele>436</ele>
        <time>2011-08-30T02:50:44Z</time>
      </trkpt>
      <trkpt lat="45.62631" lon="3.22573">
        <ele>432</ele>
        <time>2011-08-30T02:50:49Z</time>
      </trkpt>
      <trkpt lat="45.62603" lon="3.22497">
        <ele>427</ele>
        <time>2011-08-30T02:50:57Z</time>
      </trkpt>
      <trkpt lat="45.6259" lon="3.22478">
        <ele>427</ele>
        <time>2011-08-30T02:50:59Z</time>
      </trkpt>
      <trkpt lat="45.62569" lon="3.22464">
        <ele>427</ele>
        <time>2011-08-30T02:51:02Z</time>
      </trkpt>
      <trkpt lat="45.6254" lon="3.22466">
        <ele>427</ele>
        <time>2011-08-30T02:51:06Z</time>
      </trkpt>
      <trkpt lat="45.62518" lon="3.22485">
        <ele>427</ele>
        <time>2011-08-30T02:51:10Z</time>
      </trkpt>
      <trkpt lat="45.62496" lon="3.22512">
        <ele>427</ele>
        <time>2011-08-30T02:51:14Z</time>
      </trkpt>
      <trkpt lat="45.62478" lon="3.22524">
        <ele>425</ele>
        <time>2011-08-30T02:51:16Z</time>
      </trkpt>
      <trkpt lat="45.62467" lon="3.22526">
        <ele>425</ele>
        <time>2011-08-30T02:51:18Z</time>
      </trkpt>
      <trkpt lat="45.62445" lon="3.2252">
        <ele>424</ele>
        <time>2011-08-30T02:51:21Z</time>
      </trkpt>
      <trkpt lat="45.62426" lon="3.22502">
        <ele>423</ele>
        <time>2011-08-30T02:51:24Z</time>
      </trkpt>
      <trkpt lat="45.62282" lon="3.22312">
        <ele>413</ele>
        <time>2011-08-30T02:51:50Z</time>
      </trkpt>
      <trkpt lat="45.6219" lon="3.22254">
        <ele>412</ele>
        <time>2011-08-30T02:52:03Z</time>
      </trkpt>
      <trkpt lat="45.62166" lon="3.22228">
        <ele>408</ele>
        <time>2011-08-30T02:52:07Z</time>
      </trkpt>
      <trkpt lat="45.62122" lon="3.22124">
        <ele>400</ele>
        <time>2011-08-30T02:52:19Z</time>
      </trkpt>
      <trkpt lat="45.62064" lon="3.22023">
        <ele>397</ele>
        <time>2011-08-30T02:52:31Z</time>
      </trkpt>
      <trkpt lat="45.62047" lon="3.21981">
        <ele>394</ele>
        <time>2011-08-30T02:52:35Z</time>
      </trkpt>
      <trkpt lat="45.61988" lon="3.21707">
        <ele>381</ele>
        <time>2011-08-30T02:53:02Z</time>
      </trkpt>
      <trkpt lat="45.61973" lon="3.21672">
        <ele>379</ele>
        <time>2011-08-30T02:53:06Z</time>
      </trkpt>
      <trkpt lat="45.6195" lon="3.21646">
        <ele>378</ele>
        <time>2011-08-30T02:53:10Z</time>
      </trkpt>
      <trkpt lat="45.6193" lon="3.21633">
        <ele>377</ele>
        <time>2011-08-30T02:53:13Z</time>
      </trkpt>
      <trkpt lat="45.61908" lon="3.21627">
        <ele>377</ele>
        <time>2011-08-30T02:53:16Z</time>
      </trkpt>
      <trkpt lat="45.61768" lon="3.21642">
        <ele>378</ele>
        <time>2011-08-30T02:53:37Z</time>
      </trkpt>
      <trkpt lat="45.61747" lon="3.2164">
        <ele>377</ele>
        <time>2011-08-30T02:53:40Z</time>
      </trkpt>
      <trkpt lat="45.61688" lon="3.21621">
        <ele>376</ele>
        <time>2011-08-30T02:53:48Z</time>
      </trkpt>
      <trkpt lat="45.61632" lon="3.21595">
        <ele>375</ele>
        <time>2011-08-30T02:53:56Z</time>
      </trkpt>
      <trkpt lat="45.61616" lon="3.21595">
        <ele>374</ele>
        <time>2011-08-30T02:53:58Z</time>
      </trkpt>
      <trkpt lat="45.61597" lon="3.21603">
        <ele>373</ele>
        <time>2011-08-30T02:54:01Z</time>
      </trkpt>
      <trkpt lat="45.61584" lon="3.21615">
        <ele>373</ele>
        <time>2011-08-30T02:54:03Z</time>
      </trkpt>
      <trkpt lat="45.61488" lon="3.21758">
        <ele>368</ele>
        <time>2011-08-30T02:54:21Z</time>
      </trkpt>
      <trkpt lat="45.6147" lon="3.21759">
        <ele>366</ele>
        <time>2011-08-30T02:54:24Z</time>
      </trkpt>
      <trkpt lat="45.61455" lon="3.21744">
        <ele>365</ele>
        <time>2011-08-30T02:54:26Z</time>
      </trkpt>
      <trkpt lat="45.61446" lon="3.21724">
        <ele>364</ele>
        <time>2011-08-30T02:54:28Z</time>
      </trkpt>
      <trkpt lat="45.61446" lon="3.21711">
        <ele>364</ele>
        <time>2011-08-30T02:54:29Z</time>
      </trkpt>
      <trkpt lat="45.61477" lon="3.2163">
        <ele>360</ele>
        <time>2011-08-30T02:54:38Z</time>
      </trkpt>
      <trkpt lat="45.6151" lon="3.21523">
        <ele>359</ele>
        <time>2011-08-30T02:54:49Z</time>
      </trkpt>
      <trkpt lat="45.61525" lon="3.21468">
        <ele>359</ele>
        <time>2011-08-30T02:54:55Z</time>
      </trkpt>
      <trkpt lat="45.61524" lon="3.21454">
        <ele>358</ele>
        <time>2011-08-30T02:54:56Z</time>
      </trkpt>
      <trkpt lat="45.61521" lon="3.21444">
        <ele>357</ele>
        <time>2011-08-30T02:54:57Z</time>
      </trkpt>
      <trkpt lat="45.6148" lon="3.21386">
        <ele>354</ele>
        <time>2011-08-30T02:55:05Z</time>
      </trkpt>
      <trkpt lat="45.61466" lon="3.21358">
        <ele>353</ele>
        <time>2011-08-30T02:55:08Z</time>
      </trkpt>
      <trkpt lat="45.61351" lon="3.21078">
        <ele>353</ele>
        <time>2011-08-30T02:55:38Z</time>
      </trkpt>
      <trkpt lat="45.61347" lon="3.21046">
        <ele>353</ele>
        <time>2011-08-30T02:55:42Z</time>
      </trkpt>
      <trkpt lat="45.61379" lon="3.20991">
        <ele>353</ele>
        <time>2011-08-30T02:55:50Z</time>
      </trkpt>
      <trkpt lat="45.61389" lon="3.20979">
        <ele>354</ele>
        <time>2011-08-30T02:55:52Z</time>
      </trkpt>
      <trkpt lat="45.61448" lon="3.20944">
        <ele>355</ele>
        <time>2011-08-30T02:56:03Z</time>
      </trkpt>
      <trkpt lat="45.61455" lon="3.20934">
        <ele>355</ele>
        <time>2011-08-30T02:56:06Z</time>
      </trkpt>
      <trkpt lat="45.61459" lon="3.20914">
        <ele>356</ele>
        <time>2011-08-30T02:56:10Z</time>
      </trkpt>
      <trkpt lat="45.61387" lon="3.20727">
        <ele>365</ele>
        <time>2011-08-30T02:56:50Z</time>
      </trkpt>
      <trkpt lat="45.61334" lon="3.20646">
        <ele>369</ele>
        <time>2011-08-30T02:57:12Z</time>
      </trkpt>
      <trkpt lat="45.6128" lon="3.20575">
        <ele>374</ele>
        <time>2011-08-30T02:57:32Z</time>
      </trkpt>
      <trkpt lat="45.6127" lon="3.20547">
        <ele>376</ele>
        <time>2011-08-30T02:57:41Z</time>
      </trkpt>
      <trkpt lat="45.61267" lon="3.20523">
        <ele>378</ele>
        <time>2011-08-30T02:57:48Z</time>
      </trkpt>
      <trkpt lat="45.61271" lon="3.20491">
        <ele>380</ele>
        <time>2011-08-30T02:57:57Z</time>
      </trkpt>
      <trkpt lat="45.61286" lon="3.20461">
        <ele>383</ele>
        <time>2011-08-30T02:58:07Z</time>
      </trkpt>
      <trkpt lat="45.61376" lon="3.20356">
        <ele>397</ele>
        <time>2011-08-30T02:58:54Z</time>
      </trkpt>
      <trkpt lat="45.61365" lon="3.20344">
        <ele>396</ele>
        <time>2011-08-30T02:58:56Z</time>
      </trkpt>
      <trkpt lat="45.61351" lon="3.2034">
        <ele>395</ele>
        <time>2011-08-30T02:58:58Z</time>
      </trkpt>
      <trkpt lat="45.61311" lon="3.20345">
        <ele>393</ele>
        <time>2011-08-30T02:59:03Z</time>
      </trkpt>
      <trkpt lat="45.61271" lon="3.20336">
        <ele>391</ele>
        <time>2011-08-30T02:59:09Z</time>
      </trkpt>
      <trkpt lat="45.6119" lon="3.20269">
        <ele>388</ele>
        <time>2011-08-30T02:59:21Z</time>
      </trkpt>
      <trkpt lat="45.6109" lon="3.20253">
        <ele>377</ele>
        <time>2011-08-30T02:59:35Z</time>
      </trkpt>
      <trkpt lat="45.61027" lon="3.20234">
        <ele>376</ele>
        <time>2011-08-30T02:59:43Z</time>
      </trkpt>
      <trkpt lat="45.61016" lon="3.2024">
        <ele>375</ele>
        <time>2011-08-30T02:59:45Z</time>
      </trkpt>
      <trkpt lat="45.60763" lon="3.19966">
        <ele>371</ele>
        <time>2011-08-30T03:00:27Z</time>
      </trkpt>
      <trkpt lat="45.60645" lon="3.19761">
        <ele>373</ele>
        <time>2011-08-30T03:00:57Z</time>
      </trkpt>
      <trkpt lat="45.60609" lon="3.19708">
        <ele>372</ele>
        <time>2011-08-30T03:01:04Z</time>
      </trkpt>
      <trkpt lat="45.60581" lon="3.19683">
        <ele>372</ele>
        <time>2011-08-30T03:01:08Z</time>
      </trkpt>
      <trkpt lat="45.60481" lon="3.19617">
        <ele>372</ele>
        <time>2011-08-30T03:01:23Z</time>
      </trkpt>
      <trkpt lat="45.6039" lon="3.19492">
        <ele>371</ele>
        <time>2011-08-30T03:01:40Z</time>
      </trkpt>
      <trkpt lat="45.60364" lon="3.19449">
        <ele>372</ele>
        <time>2011-08-30T03:01:49Z</time>
      </trkpt>
      <trkpt lat="45.60334" lon="3.19373">
        <ele>375</ele>
        <time>2011-08-30T03:02:03Z</time>
      </trkpt>
      <trkpt lat="45.60288" lon="3.19195">
        <ele>381</ele>
        <time>2011-08-30T03:02:35Z</time>
      </trkpt>
      <trkpt lat="45.60271" lon="3.19148">
        <ele>380</ele>
        <time>2011-08-30T03:02:40Z</time>
      </trkpt>
      <trkpt lat="45.60079" lon="3.18753">
        <ele>378</ele>
        <time>2011-08-30T03:03:25Z</time>
      </trkpt>
      <trkpt lat="45.60034" lon="3.18626">
        <ele>383</ele>
        <time>2011-08-30T03:03:50Z</time>
      </trkpt>
      <trkpt lat="45.59984" lon="3.18507">
        <ele>384</ele>
        <time>2011-08-30T03:04:06Z</time>
      </trkpt>
      <trkpt lat="45.59951" lon="3.18444">
        <ele>382</ele>
        <time>2011-08-30T03:04:13Z</time>
      </trkpt>
      <trkpt lat="45.59915" lon="3.18406">
        <ele>382</ele>
        <time>2011-08-30T03:04:19Z</time>
      </trkpt>
      <trkpt lat="45.59886" lon="3.1839">
        <ele>382</ele>
        <time>2011-08-30T03:04:24Z</time>
      </trkpt>
      <trkpt lat="45.59647" lon="3.18328">
        <ele>386</ele>
        <time>2011-08-30T03:05:05Z</time>
      </trkpt>
      <trkpt lat="45.59618" lon="3.18311">
        <ele>387</ele>
        <time>2011-08-30T03:05:12Z</time>
      </trkpt>
      <trkpt lat="45.59601" lon="3.18289">
        <ele>387</ele>
        <time>2011-08-30T03:05:17Z</time>
      </trkpt>
      <trkpt lat="45.59583" lon="3.18241">
        <ele>389</ele>
        <time>2011-08-30T03:05:26Z</time>
      </trkpt>
      <trkpt lat="45.59569" lon="3.1818">
        <ele>391</ele>
        <time>2011-08-30T03:05:35Z</time>
      </trkpt>
      <trkpt lat="45.59545" lon="3.18109">
        <ele>391</ele>
        <time>2011-08-30T03:05:43Z</time>
      </trkpt>
      <trkpt lat="45.59505" lon="3.18024">
        <ele>391</ele>
        <time>2011-08-30T03:05:52Z</time>
      </trkpt>
      <trkpt lat="45.59449" lon="3.17922">
        <ele>395</ele>
        <time>2011-08-30T03:06:14Z</time>
      </trkpt>
      <trkpt lat="45.59424" lon="3.17856">
        <ele>395</ele>
        <time>2011-08-30T03:06:21Z</time>
      </trkpt>
      <trkpt lat="45.59303" lon="3.1752">
        <ele>395</ele>
        <time>2011-08-30T03:06:56Z</time>
      </trkpt>
      <trkpt lat="45.59272" lon="3.17403">
        <ele>396</ele>
        <time>2011-08-30T03:07:11Z</time>
      </trkpt>
      <trkpt lat="45.59254" lon="3.17352">
        <ele>397</ele>
        <time>2011-08-30T03:07:18Z</time>
      </trkpt>
      <trkpt lat="45.59153" lon="3.17128">
        <ele>399</ele>
        <time>2011-08-30T03:07:48Z</time>
      </trkpt>
      <trkpt lat="45.59106" lon="3.1704">
        <ele>400</ele>
        <time>2011-08-30T03:08:02Z</time>
      </trkpt>
      <trkpt lat="45.58969" lon="3.16806">
        <ele>405</ele>
        <time>2011-08-30T03:08:41Z</time>
      </trkpt>
      <trkpt lat="45.58949" lon="3.16767">
        <ele>405</ele>
        <time>2011-08-30T03:08:47Z</time>
      </trkpt>
      <trkpt lat="45.58926" lon="3.16708">
        <ele>406</ele>
        <time>2011-08-30T03:08:55Z</time>
      </trkpt>
      <trkpt lat="45.58783" lon="3.16256">
        <ele>412</ele>
        <time>2011-08-30T03:09:55Z</time>
      </trkpt>
      <trkpt lat="45.58781" lon="3.16233">
        <ele>412</ele>
        <time>2011-08-30T03:09:58Z</time>
      </trkpt>
      <trkpt lat="45.58787" lon="3.16195">
        <ele>412</ele>
        <time>2011-08-30T03:10:02Z</time>
      </trkpt>
      <trkpt lat="45.58826" lon="3.16088">
        <ele>413</ele>
        <time>2011-08-30T03:10:15Z</time>
      </trkpt>
      <trkpt lat="45.58831" lon="3.16065">
        <ele>413</ele>
        <time>2011-08-30T03:10:18Z</time>
      </trkpt>
      <trkpt lat="45.58823" lon="3.16006">
        <ele>414</ele>
        <time>2011-08-30T03:10:25Z</time>
      </trkpt>
      <trkpt lat="45.58808" lon="3.1597">
        <ele>414</ele>
        <time>2011-08-30T03:10:30Z</time>
      </trkpt>
      <trkpt lat="45.58631" lon="3.15434">
        <ele>422</ele>
        <time>2011-08-30T03:11:44Z</time>
      </trkpt>
      <trkpt lat="45.58591" lon="3.15156">
        <ele>424</ele>
        <time>2011-08-30T03:12:15Z</time>
      </trkpt>
      <trkpt lat="45.58592" lon="3.1513">
        <ele>424</ele>
        <time>2011-08-30T03:12:20Z</time>
      </trkpt>
      <trkpt lat="45.58601" lon="3.1508">
        <ele>426</ele>
        <time>2011-08-30T03:12:29Z</time>
      </trkpt>
      <trkpt lat="45.58635" lon="3.14934">
        <ele>432</ele>
        <time>2011-08-30T03:12:56Z</time>
      </trkpt>
      <trkpt lat="45.58634" lon="3.14627">
        <ele>433</ele>
        <time>2011-08-30T03:13:27Z</time>
      </trkpt>
      <trkpt lat="45.5864" lon="3.14589">
        <ele>435</ele>
        <time>2011-08-30T03:13:37Z</time>
      </trkpt>
      <trkpt lat="45.58667" lon="3.1451">
        <ele>441</ele>
        <time>2011-08-30T03:13:59Z</time>
      </trkpt>
      <trkpt lat="45.58675" lon="3.14471">
        <ele>444</ele>
        <time>2011-08-30T03:14:09Z</time>
      </trkpt>
      <trkpt lat="45.5868" lon="3.14275">
        <ele>444</ele>
        <time>2011-08-30T03:14:27Z</time>
      </trkpt>
      <trkpt lat="45.58687" lon="3.14234">
        <ele>444</ele>
        <time>2011-08-30T03:14:32Z</time>
      </trkpt>
      <trkpt lat="45.58701" lon="3.14195">
        <ele>444</ele>
        <time>2011-08-30T03:14:37Z</time>
      </trkpt>
      <trkpt lat="45.58782" lon="3.14071">
        <ele>446</ele>
        <time>2011-08-30T03:14:56Z</time>
      </trkpt>
      <trkpt lat="45.5882" lon="3.13995">
        <ele>447</ele>
        <time>2011-08-30T03:15:07Z</time>
      </trkpt>
      <trkpt lat="45.58884" lon="3.13854">
        <ele>449</ele>
        <time>2011-08-30T03:15:28Z</time>
      </trkpt>
      <trkpt lat="45.58905" lon="3.1378">
        <ele>449</ele>
        <time>2011-08-30T03:15:35Z</time>
      </trkpt>
      <trkpt lat="45.58914" lon="3.13714">
        <ele>449</ele>
        <time>2011-08-30T03:15:41Z</time>
      </trkpt>
      <trkpt lat="45.5891" lon="3.13653">
        <ele>450</ele>
        <time>2011-08-30T03:15:51Z</time>
      </trkpt>
      <trkpt lat="45.58855" lon="3.13497">
        <ele>455</ele>
        <time>2011-08-30T03:16:18Z</time>
      </trkpt>
      <trkpt lat="45.58862" lon="3.13453">
        <ele>455</ele>
        <time>2011-08-30T03:16:22Z</time>
      </trkpt>
      <trkpt lat="45.58861" lon="3.134">
        <ele>455</ele>
        <time>2011-08-30T03:16:27Z</time>
      </trkpt>
      <trkpt lat="45.58859" lon="3.13377">
        <ele>455</ele>
        <time>2011-08-30T03:16:29Z</time>
      </trkpt>
      <trkpt lat="45.58851" lon="3.13357">
        <ele>455</ele>
        <time>2011-08-30T03:16:31Z</time>
      </trkpt>
      <trkpt lat="45.58843" lon="3.13311">
        <ele>456</ele>
        <time>2011-08-30T03:16:40Z</time>
      </trkpt>
      <trkpt lat="45.58846" lon="3.13268">
        <ele>458</ele>
        <time>2011-08-30T03:16:47Z</time>
      </trkpt>
      <trkpt lat="45.58859" lon="3.13233">
        <ele>459</ele>
        <time>2011-08-30T03:16:54Z</time>
      </trkpt>
      <trkpt lat="45.58902" lon="3.13154">
        <ele>463</ele>
        <time>2011-08-30T03:17:12Z</time>
      </trkpt>
      <trkpt lat="45.5892" lon="3.13113">
        <ele>461</ele>
        <time>2011-08-30T03:17:17Z</time>
      </trkpt>
      <trkpt lat="45.58929" lon="3.13081">
        <ele>460</ele>
        <time>2011-08-30T03:17:20Z</time>
      </trkpt>
      <trkpt lat="45.58929" lon="3.13046">
        <ele>459</ele>
        <time>2011-08-30T03:17:23Z</time>
      </trkpt>
      <trkpt lat="45.58914" lon="3.12994">
        <ele>458</ele>
        <time>2011-08-30T03:17:28Z</time>
      </trkpt>
      <trkpt lat="45.58901" lon="3.12975">
        <ele>458</ele>
        <time>2011-08-30T03:17:31Z</time>
      </trkpt>
      <trkpt lat="45.58885" lon="3.1296">
        <ele>458</ele>
        <time>2011-08-30T03:17:34Z</time>
      </trkpt>
      <trkpt lat="45.58769" lon="3.12892">
        <ele>459</ele>
        <time>2011-08-30T03:17:52Z</time>
      </trkpt>
      <trkpt lat="45.58763" lon="3.12885">
        <ele>459</ele>
        <time>2011-08-30T03:17:54Z</time>
      </trkpt>
      <trkpt lat="45.58759" lon="3.12857">
        <ele>459</ele>
        <time>2011-08-30T03:17:58Z</time>
      </trkpt>
      <trkpt lat="45.58766" lon="3.12819">
        <ele>460</ele>
        <time>2011-08-30T03:18:03Z</time>
      </trkpt>
      <trkpt lat="45.58778" lon="3.12794">
        <ele>460</ele>
        <time>2011-08-30T03:18:07Z</time>
      </trkpt>
      <trkpt lat="45.58848" lon="3.1272">
        <ele>463</ele>
        <time>2011-08-30T03:18:24Z</time>
      </trkpt>
      <trkpt lat="45.58877" lon="3.12672">
        <ele>464</ele>
        <time>2011-08-30T03:18:33Z</time>
      </trkpt>
      <trkpt lat="45.58905" lon="3.1261">
        <ele>466</ele>
        <time>2011-08-30T03:18:44Z</time>
      </trkpt>
      <trkpt lat="45.58919" lon="3.12532">
        <ele>464</ele>
        <time>2011-08-30T03:18:52Z</time>
      </trkpt>
      <trkpt lat="45.58919" lon="3.12532">
        <ele>464</ele>
        <time>2011-08-30T03:18:53Z</time>
      </trkpt>
      <trkpt lat="45.58933" lon="3.12408">
        <ele>464</ele>
        <time>2011-08-30T03:19:05Z</time>
      </trkpt>
      <trkpt lat="45.58923" lon="3.1218">
        <ele>465</ele>
        <time>2011-08-30T03:19:28Z</time>
      </trkpt>
      <trkpt lat="45.58837" lon="3.11264">
        <ele>472</ele>
        <time>2011-08-30T03:21:11Z</time>
      </trkpt>
      <trkpt lat="45.58836" lon="3.11226">
        <ele>473</ele>
        <time>2011-08-30T03:21:17Z</time>
      </trkpt>
      <trkpt lat="45.58849" lon="3.11026">
        <ele>479</ele>
        <time>2011-08-30T03:21:50Z</time>
      </trkpt>
      <trkpt lat="45.58847" lon="3.10978">
        <ele>479</ele>
        <time>2011-08-30T03:21:56Z</time>
      </trkpt>
      <trkpt lat="45.58787" lon="3.10587">
        <ele>483</ele>
        <time>2011-08-30T03:22:42Z</time>
      </trkpt>
      <trkpt lat="45.5876" lon="3.1046">
        <ele>484</ele>
        <time>2011-08-30T03:22:57Z</time>
      </trkpt>
      <trkpt lat="45.58757" lon="3.10426">
        <ele>485</ele>
        <time>2011-08-30T03:23:03Z</time>
      </trkpt>
      <trkpt lat="45.58759" lon="3.10257">
        <ele>492</ele>
        <time>2011-08-30T03:23:35Z</time>
      </trkpt>
      <trkpt lat="45.58749" lon="3.10198">
        <ele>490</ele>
        <time>2011-08-30T03:23:41Z</time>
      </trkpt>
      <trkpt lat="45.58739" lon="3.10157">
        <ele>490</ele>
        <time>2011-08-30T03:23:45Z</time>
      </trkpt>
      <trkpt lat="45.58661" lon="3.0996">
        <ele>486</ele>
        <time>2011-08-30T03:24:06Z</time>
      </trkpt>
      <trkpt lat="45.58654" lon="3.09932">
        <ele>486</ele>
        <time>2011-08-30T03:24:10Z</time>
      </trkpt>
      <trkpt lat="45.58652" lon="3.09867">
        <ele>487</ele>
        <time>2011-08-30T03:24:19Z</time>
      </trkpt>
      <trkpt lat="45.58676" lon="3.09591">
        <ele>493</ele>
        <time>2011-08-30T03:24:57Z</time>
      </trkpt>
      <trkpt lat="45.58677" lon="3.09536">
        <ele>493</ele>
        <time>2011-08-30T03:25:04Z</time>
      </trkpt>
      <trkpt lat="45.5866" lon="3.09397">
        <ele>495</ele>
        <time>2011-08-30T03:25:21Z</time>
      </trkpt>
      <trkpt lat="45.58645" lon="3.09331">
        <ele>495</ele>
        <time>2011-08-30T03:25:29Z</time>
      </trkpt>
      <trkpt lat="45.58626" lon="3.09285">
        <ele>496</ele>
        <time>2011-08-30T03:25:35Z</time>
      </trkpt>
      <trkpt lat="45.58532" lon="3.09136">
        <ele>498</ele>
        <time>2011-08-30T03:25:58Z</time>
      </trkpt>
      <trkpt lat="45.58482" lon="3.09069">
        <ele>496</ele>
        <time>2011-08-30T03:26:07Z</time>
      </trkpt>
      <trkpt lat="45.58397" lon="3.08875">
        <ele>493</ele>
        <time>2011-08-30T03:26:29Z</time>
      </trkpt>
      <trkpt lat="45.58341" lon="3.08693">
        <ele>497</ele>
        <time>2011-08-30T03:26:57Z</time>
      </trkpt>
      <trkpt lat="45.58323" lon="3.0865">
        <ele>498</ele>
        <time>2011-08-30T03:27:04Z</time>
      </trkpt>
      <trkpt lat="45.58308" lon="3.08629">
        <ele>498</ele>
        <time>2011-08-30T03:27:09Z</time>
      </trkpt>
      <trkpt lat="45.58212" lon="3.08529">
        <ele>503</ele>
        <time>2011-08-30T03:27:34Z</time>
      </trkpt>
      <trkpt lat="45.58136" lon="3.08422">
        <ele>504</ele>
        <time>2011-08-30T03:27:51Z</time>
      </trkpt>
      <trkpt lat="45.58012" lon="3.08291">
        <ele>509</ele>
        <time>2011-08-30T03:28:24Z</time>
      </trkpt>
      <trkpt lat="45.57991" lon="3.08263">
        <ele>511</ele>
        <time>2011-08-30T03:28:33Z</time>
      </trkpt>
      <trkpt lat="45.57966" lon="3.08215">
        <ele>514</ele>
        <time>2011-08-30T03:28:47Z</time>
      </trkpt>
      <trkpt lat="45.57933" lon="3.08097">
        <ele>522</ele>
        <time>2011-08-30T03:29:16Z</time>
      </trkpt>
      <trkpt lat="45.57922" lon="3.08037">
        <ele>526</ele>
        <time>2011-08-30T03:29:33Z</time>
      </trkpt>
      <trkpt lat="45.57923" lon="3.07969">
        <ele>532</ele>
        <time>2011-08-30T03:29:52Z</time>
      </trkpt>
      <trkpt lat="45.57929" lon="3.07917">
        <ele>530</ele>
        <time>2011-08-30T03:29:57Z</time>
      </trkpt>
      <trkpt lat="45.57956" lon="3.07843">
        <ele>528</ele>
        <time>2011-08-30T03:30:05Z</time>
      </trkpt>
      <trkpt lat="45.57961" lon="3.07809">
        <ele>528</ele>
        <time>2011-08-30T03:30:09Z</time>
      </trkpt>
      <trkpt lat="45.57956" lon="3.07763">
        <ele>528</ele>
        <time>2011-08-30T03:30:15Z</time>
      </trkpt>
      <trkpt lat="45.57928" lon="3.07645">
        <ele>530</ele>
        <time>2011-08-30T03:30:29Z</time>
      </trkpt>
      <trkpt lat="45.57917" lon="3.0743">
        <ele>533</ele>
        <time>2011-08-30T03:30:57Z</time>
      </trkpt>
      <trkpt lat="45.57894" lon="3.07317">
        <ele>528</ele>
        <time>2011-08-30T03:31:08Z</time>
      </trkpt>
      <trkpt lat="45.57883" lon="3.07295">
        <ele>527</ele>
        <time>2011-08-30T03:31:10Z</time>
      </trkpt>
      <trkpt lat="45.57864" lon="3.07282">
        <ele>527</ele>
        <time>2011-08-30T03:31:14Z</time>
      </trkpt>
      <trkpt lat="45.5785" lon="3.07278">
        <ele>527</ele>
        <time>2011-08-30T03:31:16Z</time>
      </trkpt>
      <trkpt lat="45.57781" lon="3.07285">
        <ele>529</ele>
        <time>2011-08-30T03:31:29Z</time>
      </trkpt>
      <trkpt lat="45.57755" lon="3.07274">
        <ele>530</ele>
        <time>2011-08-30T03:31:37Z</time>
      </trkpt>
      <trkpt lat="45.57739" lon="3.07255">
        <ele>532</ele>
        <time>2011-08-30T03:31:43Z</time>
      </trkpt>
      <trkpt lat="45.57732" lon="3.07238">
        <ele>533</ele>
        <time>2011-08-30T03:31:47Z</time>
      </trkpt>
      <trkpt lat="45.57727" lon="3.0721">
        <ele>534</ele>
        <time>2011-08-30T03:31:53Z</time>
      </trkpt>
      <trkpt lat="45.57724" lon="3.07119">
        <ele>539</ele>
        <time>2011-08-30T03:32:12Z</time>
      </trkpt>
      <trkpt lat="45.57727" lon="3.06906">
        <ele>552</ele>
        <time>2011-08-30T03:33:03Z</time>
      </trkpt>
      <trkpt lat="45.57723" lon="3.06873">
        <ele>551</ele>
        <time>2011-08-30T03:33:07Z</time>
      </trkpt>
      <trkpt lat="45.57709" lon="3.06823">
        <ele>551</ele>
        <time>2011-08-30T03:33:12Z</time>
      </trkpt>
      <trkpt lat="45.57698" lon="3.06797">
        <ele>551</ele>
        <time>2011-08-30T03:33:14Z</time>
      </trkpt>
      <trkpt lat="45.57673" lon="3.06763">
        <ele>551</ele>
        <time>2011-08-30T03:33:19Z</time>
      </trkpt>
      <trkpt lat="45.57564" lon="3.06701">
        <ele>549</ele>
        <time>2011-08-30T03:33:35Z</time>
      </trkpt>
      <trkpt lat="45.57534" lon="3.06669">
        <ele>551</ele>
        <time>2011-08-30T03:33:45Z</time>
      </trkpt>
      <trkpt lat="45.57518" lon="3.06641">
        <ele>552</ele>
        <time>2011-08-30T03:33:52Z</time>
      </trkpt>
      <trkpt lat="45.57488" lon="3.06554">
        <ele>557</ele>
        <time>2011-08-30T03:34:11Z</time>
      </trkpt>
      <trkpt lat="45.57468" lon="3.06514">
        <ele>557</ele>
        <time>2011-08-30T03:34:16Z</time>
      </trkpt>
      <trkpt lat="45.57428" lon="3.06452">
        <ele>557</ele>
        <time>2011-08-30T03:34:24Z</time>
      </trkpt>
      <trkpt lat="45.57414" lon="3.06416">
        <ele>557</ele>
        <time>2011-08-30T03:34:29Z</time>
      </trkpt>
      <trkpt lat="45.57403" lon="3.06352">
        <ele>558</ele>
        <time>2011-08-30T03:34:37Z</time>
      </trkpt>
      <trkpt lat="45.57385" lon="3.06178">
        <ele>561</ele>
        <time>2011-08-30T03:35:00Z</time>
      </trkpt>
      <trkpt lat="45.57376" lon="3.06132">
        <ele>561</ele>
        <time>2011-08-30T03:35:04Z</time>
      </trkpt>
      <trkpt lat="45.57359" lon="3.06085">
        <ele>561</ele>
        <time>2011-08-30T03:35:09Z</time>
      </trkpt>
      <trkpt lat="45.57332" lon="3.06022">
        <ele>561</ele>
        <time>2011-08-30T03:35:16Z</time>
      </trkpt>
      <trkpt lat="45.57306" lon="3.05978">
        <ele>561</ele>
        <time>2011-08-30T03:35:23Z</time>
      </trkpt>
      <trkpt lat="45.57297" lon="3.05968">
        <ele>561</ele>
        <time>2011-08-30T03:35:25Z</time>
      </trkpt>
      <trkpt lat="45.57232" lon="3.05943">
        <ele>563</ele>
        <time>2011-08-30T03:35:37Z</time>
      </trkpt>
      <trkpt lat="45.57219" lon="3.05941">
        <ele>563</ele>
        <time>2011-08-30T03:35:40Z</time>
      </trkpt>
      <trkpt lat="45.57176" lon="3.05978">
        <ele>565</ele>
        <time>2011-08-30T03:35:51Z</time>
      </trkpt>
      <trkpt lat="45.57158" lon="3.05987">
        <ele>566</ele>
        <time>2011-08-30T03:35:56Z</time>
      </trkpt>
      <trkpt lat="45.57112" lon="3.05988">
        <ele>568</ele>
        <time>2011-08-30T03:36:06Z</time>
      </trkpt>
      <trkpt lat="45.57073" lon="3.06002">
        <ele>571</ele>
        <time>2011-08-30T03:36:20Z</time>
      </trkpt>
      <trkpt lat="45.57043" lon="3.06026">
        <ele>574</ele>
        <time>2011-08-30T03:36:33Z</time>
      </trkpt>
      <trkpt lat="45.56993" lon="3.06084">
        <ele>581</ele>
        <time>2011-08-30T03:36:56Z</time>
      </trkpt>
      <trkpt lat="45.56966" lon="3.06096">
        <ele>581</ele>
        <time>2011-08-30T03:37:00Z</time>
      </trkpt>
      <trkpt lat="45.56923" lon="3.06091">
        <ele>581</ele>
        <time>2011-08-30T03:37:07Z</time>
      </trkpt>
      <trkpt lat="45.56884" lon="3.06068">
        <ele>582</ele>
        <time>2011-08-30T03:37:13Z</time>
      </trkpt>
      <trkpt lat="45.56853" lon="3.06059">
        <ele>584</ele>
        <time>2011-08-30T03:37:23Z</time>
      </trkpt>
      <trkpt lat="45.56759" lon="3.06047">
        <ele>591</ele>
        <time>2011-08-30T03:37:52Z</time>
      </trkpt>
      <trkpt lat="45.56559" lon="3.06069">
        <ele>602</ele>
        <time>2011-08-30T03:38:45Z</time>
      </trkpt>
      <trkpt lat="45.56435" lon="3.06072">
        <ele>603</ele>
        <time>2011-08-30T03:39:04Z</time>
      </trkpt>
      <trkpt lat="45.56392" lon="3.06059">
        <ele>606</ele>
        <time>2011-08-30T03:39:17Z</time>
      </trkpt>
      <trkpt lat="45.56365" lon="3.0604">
        <ele>608</ele>
        <time>2011-08-30T03:39:26Z</time>
      </trkpt>
      <trkpt lat="45.56325" lon="3.05989">
        <ele>612</ele>
        <time>2011-08-30T03:39:43Z</time>
      </trkpt>
      <trkpt lat="45.56261" lon="3.05838">
        <ele>617</ele>
        <time>2011-08-30T03:40:11Z</time>
      </trkpt>
      <trkpt lat="45.56172" lon="3.0569">
        <ele>621</ele>
        <time>2011-08-30T03:40:39Z</time>
      </trkpt>
      <trkpt lat="45.56162" lon="3.05663">
        <ele>623</ele>
        <time>2011-08-30T03:40:48Z</time>
      </trkpt>
      <trkpt lat="45.56155" lon="3.05629">
        <ele>626</ele>
        <time>2011-08-30T03:40:59Z</time>
      </trkpt>
      <trkpt lat="45.56152" lon="3.05589">
        <ele>630</ele>
        <time>2011-08-30T03:41:12Z</time>
      </trkpt>
      <trkpt lat="45.56156" lon="3.05551">
        <ele>634</ele>
        <time>2011-08-30T03:41:24Z</time>
      </trkpt>
      <trkpt lat="45.56188" lon="3.05425">
        <ele>641</ele>
        <time>2011-08-30T03:41:53Z</time>
      </trkpt>
      <trkpt lat="45.56193" lon="3.05384">
        <ele>639</ele>
        <time>2011-08-30T03:41:57Z</time>
      </trkpt>
      <trkpt lat="45.56191" lon="3.05325">
        <ele>636</ele>
        <time>2011-08-30T03:42:02Z</time>
      </trkpt>
      <trkpt lat="45.56175" lon="3.05257">
        <ele>634</ele>
        <time>2011-08-30T03:42:09Z</time>
      </trkpt>
      <trkpt lat="45.56145" lon="3.05202">
        <ele>634</ele>
        <time>2011-08-30T03:42:17Z</time>
      </trkpt>
      <trkpt lat="45.5605" lon="3.05065">
        <ele>636</ele>
        <time>2011-08-30T03:42:39Z</time>
      </trkpt>
      <trkpt lat="45.5603" lon="3.05029">
        <ele>636</ele>
        <time>2011-08-30T03:42:45Z</time>
      </trkpt>
      <trkpt lat="45.55864" lon="3.04787">
        <ele>644</ele>
        <time>2011-08-30T03:43:34Z</time>
      </trkpt>
      <trkpt lat="45.55857" lon="3.04784">
        <ele>644</ele>
        <time>2011-08-30T03:43:35Z</time>
      </trkpt>
      <trkpt lat="45.55697" lon="3.04546">
        <ele>653</ele>
        <time>2011-08-30T03:44:27Z</time>
      </trkpt>
      <trkpt lat="45.55671" lon="3.04506">
        <ele>654</ele>
        <time>2011-08-30T03:44:35Z</time>
      </trkpt>
      <trkpt lat="45.55643" lon="3.04451">
        <ele>656</ele>
        <time>2011-08-30T03:44:46Z</time>
      </trkpt>
      <trkpt lat="45.55616" lon="3.04379">
        <ele>658</ele>
        <time>2011-08-30T03:44:58Z</time>
      </trkpt>
      <trkpt lat="45.55599" lon="3.04319">
        <ele>659</ele>
        <time>2011-08-30T03:45:07Z</time>
      </trkpt>
      <trkpt lat="45.556" lon="3.04307">
        <ele>659</ele>
        <time>2011-08-30T03:45:08Z</time>
      </trkpt>
      <trkpt lat="45.55575" lon="3.04138">
        <ele>662</ele>
        <time>2011-08-30T03:45:31Z</time>
      </trkpt>
      <trkpt lat="45.55554" lon="3.04054">
        <ele>662</ele>
        <time>2011-08-30T03:45:40Z</time>
      </trkpt>
      <trkpt lat="45.55534" lon="3.0401">
        <ele>662</ele>
        <time>2011-08-30T03:45:44Z</time>
      </trkpt>
      <trkpt lat="45.55486" lon="3.0393">
        <ele>664</ele>
        <time>2011-08-30T03:46:00Z</time>
      </trkpt>
      <trkpt lat="45.55462" lon="3.03864">
        <ele>666</ele>
        <time>2011-08-30T03:46:11Z</time>
      </trkpt>
      <trkpt lat="45.55453" lon="3.03815">
        <ele>665</ele>
        <time>2011-08-30T03:46:16Z</time>
      </trkpt>
      <trkpt lat="45.55449" lon="3.03767">
        <ele>664</ele>
        <time>2011-08-30T03:46:20Z</time>
      </trkpt>
      <trkpt lat="45.55454" lon="3.03638">
        <ele>663</ele>
        <time>2011-08-30T03:46:32Z</time>
      </trkpt>
      <trkpt lat="45.55451" lon="3.03578">
        <ele>663</ele>
        <time>2011-08-30T03:46:38Z</time>
      </trkpt>
      <trkpt lat="45.55445" lon="3.03535">
        <ele>663</ele>
        <time>2011-08-30T03:46:42Z</time>
      </trkpt>
      <trkpt lat="45.55427" lon="3.03473">
        <ele>663</ele>
        <time>2011-08-30T03:46:48Z</time>
      </trkpt>
      <trkpt lat="45.55402" lon="3.03421">
        <ele>663</ele>
        <time>2011-08-30T03:46:56Z</time>
      </trkpt>
      <trkpt lat="45.55251" lon="3.03232">
        <ele>668</ele>
        <time>2011-08-30T03:47:33Z</time>
      </trkpt>
      <trkpt lat="45.55125" lon="3.03041">
        <ele>674</ele>
        <time>2011-08-30T03:48:12Z</time>
      </trkpt>
      <trkpt lat="45.55094" lon="3.03006">
        <ele>675</ele>
        <time>2011-08-30T03:48:20Z</time>
      </trkpt>
      <trkpt lat="45.55003" lon="3.02922">
        <ele>679</ele>
        <time>2011-08-30T03:48:44Z</time>
      </trkpt>
      <trkpt lat="45.5491" lon="3.02852">
        <ele>682</ele>
        <time>2011-08-30T03:49:05Z</time>
      </trkpt>
      <trkpt lat="45.54859" lon="3.02832">
        <ele>683</ele>
        <time>2011-08-30T03:49:16Z</time>
      </trkpt>
      <trkpt lat="45.54821" lon="3.02823">
        <ele>685</ele>
        <time>2011-08-30T03:49:24Z</time>
      </trkpt>
      <trkpt lat="45.54821" lon="3.02823">
        <ele>685</ele>
        <time>2011-08-30T03:49:25Z</time>
      </trkpt>
      <trkpt lat="45.54692" lon="3.0281">
        <ele>688</ele>
        <time>2011-08-30T03:49:50Z</time>
      </trkpt>
      <trkpt lat="45.54497" lon="3.02737">
        <ele>695</ele>
        <time>2011-08-30T03:50:34Z</time>
      </trkpt>
      <trkpt lat="45.54444" lon="3.02734">
        <ele>697</ele>
        <time>2011-08-30T03:50:46Z</time>
      </trkpt>
      <trkpt lat="45.54345" lon="3.02749">
        <ele>701</ele>
        <time>2011-08-30T03:51:08Z</time>
      </trkpt>
      <trkpt lat="45.54287" lon="3.02743">
        <ele>700</ele>
        <time>2011-08-30T03:51:16Z</time>
      </trkpt>
      <trkpt lat="45.54245" lon="3.02722">
        <ele>700</ele>
        <time>2011-08-30T03:51:22Z</time>
      </trkpt>
      <trkpt lat="45.54193" lon="3.02676">
        <ele>700</ele>
        <time>2011-08-30T03:51:30Z</time>
      </trkpt>
      <trkpt lat="45.54161" lon="3.02629">
        <ele>700</ele>
        <time>2011-08-30T03:51:36Z</time>
      </trkpt>
      <trkpt lat="45.54132" lon="3.02563">
        <ele>700</ele>
        <time>2011-08-30T03:51:45Z</time>
      </trkpt>
      <trkpt lat="45.5412" lon="3.02512">
        <ele>701</ele>
        <time>2011-08-30T03:51:51Z</time>
      </trkpt>
      <trkpt lat="45.54097" lon="3.02364">
        <ele>707</ele>
        <time>2011-08-30T03:52:20Z</time>
      </trkpt>
      <trkpt lat="45.54088" lon="3.02337">
        <ele>707</ele>
        <time>2011-08-30T03:52:23Z</time>
      </trkpt>
      <trkpt lat="45.54024" lon="3.02196">
        <ele>708</ele>
        <time>2011-08-30T03:52:41Z</time>
      </trkpt>
      <trkpt lat="45.53985" lon="3.02081">
        <ele>704</ele>
        <time>2011-08-30T03:52:52Z</time>
      </trkpt>
      <trkpt lat="45.53967" lon="3.02011">
        <ele>703</ele>
        <time>2011-08-30T03:52:59Z</time>
      </trkpt>
      <trkpt lat="45.53955" lon="3.0192">
        <ele>703</ele>
        <time>2011-08-30T03:53:09Z</time>
      </trkpt>
      <trkpt lat="45.53957" lon="3.01884">
        <ele>703</ele>
        <time>2011-08-30T03:53:13Z</time>
      </trkpt>
      <trkpt lat="45.53983" lon="3.01767">
        <ele>704</ele>
        <time>2011-08-30T03:53:25Z</time>
      </trkpt>
      <trkpt lat="45.53978" lon="3.01731">
        <ele>703</ele>
        <time>2011-08-30T03:53:29Z</time>
      </trkpt>
      <trkpt lat="45.53952" lon="3.01672">
        <ele>701</ele>
        <time>2011-08-30T03:53:35Z</time>
      </trkpt>
      <trkpt lat="45.53946" lon="3.01629">
        <ele>700</ele>
        <time>2011-08-30T03:53:39Z</time>
      </trkpt>
      <trkpt lat="45.53948" lon="3.01498">
        <ele>700</ele>
        <time>2011-08-30T03:53:52Z</time>
      </trkpt>
      <trkpt lat="45.5394" lon="3.01381">
        <ele>695</ele>
        <time>2011-08-30T03:54:03Z</time>
      </trkpt>
      <trkpt lat="45.53947" lon="3.01351">
        <ele>694</ele>
        <time>2011-08-30T03:54:06Z</time>
      </trkpt>
      <trkpt lat="45.53967" lon="3.01296">
        <ele>692</ele>
        <time>2011-08-30T03:54:11Z</time>
      </trkpt>
      <trkpt lat="45.53971" lon="3.01263">
        <ele>691</ele>
        <time>2011-08-30T03:54:15Z</time>
      </trkpt>
      <trkpt lat="45.53965" lon="3.01229">
        <ele>690</ele>
        <time>2011-08-30T03:54:18Z</time>
      </trkpt>
      <trkpt lat="45.53933" lon="3.0112">
        <ele>688</ele>
        <time>2011-08-30T03:54:29Z</time>
      </trkpt>
      <trkpt lat="45.53932" lon="3.01088">
        <ele>688</ele>
        <time>2011-08-30T03:54:34Z</time>
      </trkpt>
      <trkpt lat="45.53936" lon="3.01056">
        <ele>689</ele>
        <time>2011-08-30T03:54:38Z</time>
      </trkpt>
      <trkpt lat="45.53961" lon="3.00995">
        <ele>691</ele>
        <time>2011-08-30T03:54:49Z</time>
      </trkpt>
      <trkpt lat="45.53985" lon="3.00955">
        <ele>689</ele>
        <time>2011-08-30T03:54:54Z</time>
      </trkpt>
      <trkpt lat="45.5401" lon="3.0088">
        <ele>687</ele>
        <time>2011-08-30T03:55:01Z</time>
      </trkpt>
      <trkpt lat="45.54028" lon="3.00841">
        <ele>687</ele>
        <time>2011-08-30T03:55:07Z</time>
      </trkpt>
      <trkpt lat="45.54128" lon="3.00731">
        <ele>689</ele>
        <time>2011-08-30T03:55:28Z</time>
      </trkpt>
      <trkpt lat="45.54164" lon="3.00684">
        <ele>687</ele>
        <time>2011-08-30T03:55:34Z</time>
      </trkpt>
      <trkpt lat="45.54188" lon="3.00615">
        <ele>686</ele>
        <time>2011-08-30T03:55:41Z</time>
      </trkpt>
      <trkpt lat="45.54202" lon="3.00521">
        <ele>681</ele>
        <time>2011-08-30T03:55:50Z</time>
      </trkpt>
      <trkpt lat="45.54219" lon="3.00466">
        <ele>679</ele>
        <time>2011-08-30T03:55:56Z</time>
      </trkpt>
      <trkpt lat="45.54356" lon="3.00265">
        <ele>681</ele>
        <time>2011-08-30T03:56:27Z</time>
      </trkpt>
      <trkpt lat="45.54391" lon="3.00143">
        <ele>679</ele>
        <time>2011-08-30T03:56:39Z</time>
      </trkpt>
      <trkpt lat="45.54451" lon="3.00066">
        <ele>682</ele>
        <time>2011-08-30T03:56:59Z</time>
      </trkpt>
      <trkpt lat="45.54487" lon="3.00008">
        <ele>685</ele>
        <time>2011-08-30T03:57:12Z</time>
      </trkpt>
      <trkpt lat="45.54534" lon="2.9992">
        <ele>685</ele>
        <time>2011-08-30T03:57:24Z</time>
      </trkpt>
      <trkpt lat="45.54575" lon="2.99807">
        <ele>687</ele>
        <time>2011-08-30T03:57:39Z</time>
      </trkpt>
      <trkpt lat="45.5462" lon="2.99743">
        <ele>694</ele>
        <time>2011-08-30T03:58:04Z</time>
      </trkpt>
      <trkpt lat="45.54638" lon="2.99699">
        <ele>698</ele>
        <time>2011-08-30T03:58:18Z</time>
      </trkpt>
      <trkpt lat="45.54687" lon="2.99473">
        <ele>702</ele>
        <time>2011-08-30T03:58:50Z</time>
      </trkpt>
      <trkpt lat="45.54694" lon="2.99417">
        <ele>700</ele>
        <time>2011-08-30T03:58:55Z</time>
      </trkpt>
      <trkpt lat="45.54694" lon="2.99382">
        <ele>699</ele>
        <time>2011-08-30T03:58:59Z</time>
      </trkpt>
      <trkpt lat="45.5468" lon="2.99203">
        <ele>695</ele>
        <time>2011-08-30T03:59:16Z</time>
      </trkpt>
      <trkpt lat="45.54684" lon="2.99002">
        <ele>708</ele>
        <time>2011-08-30T04:00:06Z</time>
      </trkpt>
      <trkpt lat="45.5468" lon="2.98959">
        <ele>709</ele>
        <time>2011-08-30T04:00:14Z</time>
      </trkpt>
      <trkpt lat="45.54664" lon="2.98898">
        <ele>712</ele>
        <time>2011-08-30T04:00:27Z</time>
      </trkpt>
      <trkpt lat="45.54641" lon="2.98859">
        <ele>715</ele>
        <time>2011-08-30T04:00:37Z</time>
      </trkpt>
      <trkpt lat="45.54622" lon="2.9884">
        <ele>715</ele>
        <time>2011-08-30T04:00:41Z</time>
      </trkpt>
      <trkpt lat="45.54546" lon="2.98794">
        <ele>716</ele>
        <time>2011-08-30T04:00:54Z</time>
      </trkpt>
      <trkpt lat="45.54514" lon="2.98764">
        <ele>718</ele>
        <time>2011-08-30T04:01:05Z</time>
      </trkpt>
      <trkpt lat="45.54459" lon="2.9868">
        <ele>724</ele>
        <time>2011-08-30T04:01:29Z</time>
      </trkpt>
      <trkpt lat="45.54449" lon="2.98648">
        <ele>725</ele>
        <time>2011-08-30T04:01:35Z</time>
      </trkpt>
      <trkpt lat="45.54444" lon="2.98592">
        <ele>726</ele>
        <time>2011-08-30T04:01:44Z</time>
      </trkpt>
      <trkpt lat="45.54435" lon="2.98571">
        <ele>727</ele>
        <time>2011-08-30T04:01:48Z</time>
      </trkpt>
      <trkpt lat="45.54383" lon="2.98515">
        <ele>730</ele>
        <time>2011-08-30T04:02:03Z</time>
      </trkpt>
      <trkpt lat="45.54336" lon="2.98439">
        <ele>732</ele>
        <time>2011-08-30T04:02:19Z</time>
      </trkpt>
      <trkpt lat="45.54182" lon="2.98318">
        <ele>740</ele>
        <time>2011-08-30T04:03:00Z</time>
      </trkpt>
      <trkpt lat="45.54156" lon="2.98279">
        <ele>742</ele>
        <time>2011-08-30T04:03:10Z</time>
      </trkpt>
      <trkpt lat="45.54105" lon="2.98176">
        <ele>747</ele>
        <time>2011-08-30T04:03:33Z</time>
      </trkpt>
      <trkpt lat="45.54088" lon="2.98152">
        <ele>747</ele>
        <time>2011-08-30T04:03:38Z</time>
      </trkpt>
      <trkpt lat="45.54044" lon="2.98121">
        <ele>748</ele>
        <time>2011-08-30T04:03:46Z</time>
      </trkpt>
      <trkpt lat="45.5394" lon="2.98086">
        <ele>750</ele>
        <time>2011-08-30T04:04:05Z</time>
      </trkpt>
      <trkpt lat="45.53882" lon="2.98021">
        <ele>751</ele>
        <time>2011-08-30T04:04:19Z</time>
      </trkpt>
      <trkpt lat="45.53812" lon="2.97975">
        <ele>754</ele>
        <time>2011-08-30T04:04:34Z</time>
      </trkpt>
      <trkpt lat="45.53789" lon="2.97941">
        <ele>755</ele>
        <time>2011-08-30T04:04:42Z</time>
      </trkpt>
      <trkpt lat="45.5375" lon="2.97845">
        <ele>758</ele>
        <time>2011-08-30T04:04:59Z</time>
      </trkpt>
      <trkpt lat="45.53732" lon="2.97823">
        <ele>758</ele>
        <time>2011-08-30T04:05:03Z</time>
      </trkpt>
      <trkpt lat="45.53647" lon="2.97775">
        <ele>760</ele>
        <time>2011-08-30T04:05:19Z</time>
      </trkpt>
      <trkpt lat="45.53624" lon="2.97756">
        <ele>762</ele>
        <time>2011-08-30T04:05:27Z</time>
      </trkpt>
      <trkpt lat="45.53602" lon="2.97723">
        <ele>764</ele>
        <time>2011-08-30T04:05:38Z</time>
      </trkpt>
      <trkpt lat="45.5356" lon="2.97621">
        <ele>771</ele>
        <time>2011-08-30T04:06:04Z</time>
      </trkpt>
      <trkpt lat="45.53513" lon="2.9752">
        <ele>776</ele>
        <time>2011-08-30T04:06:29Z</time>
      </trkpt>
      <trkpt lat="45.53461" lon="2.97418">
        <ele>782</ele>
        <time>2011-08-30T04:06:54Z</time>
      </trkpt>
      <trkpt lat="45.53442" lon="2.97392">
        <ele>783</ele>
        <time>2011-08-30T04:07:01Z</time>
      </trkpt>
      <trkpt lat="45.53412" lon="2.97371">
        <ele>785</ele>
        <time>2011-08-30T04:07:10Z</time>
      </trkpt>
      <trkpt lat="45.53381" lon="2.97362">
        <ele>787</ele>
        <time>2011-08-30T04:07:19Z</time>
      </trkpt>
      <trkpt lat="45.53227" lon="2.97404">
        <ele>797</ele>
        <time>2011-08-30T04:08:03Z</time>
      </trkpt>
      <trkpt lat="45.53119" lon="2.97416">
        <ele>800</ele>
        <time>2011-08-30T04:08:25Z</time>
      </trkpt>
      <trkpt lat="45.53097" lon="2.97415">
        <ele>802</ele>
        <time>2011-08-30T04:08:34Z</time>
      </trkpt>
      <trkpt lat="45.53019" lon="2.97392">
        <ele>813</ele>
        <time>2011-08-30T04:09:09Z</time>
      </trkpt>
      <trkpt lat="45.52934" lon="2.97374">
        <ele>813</ele>
        <time>2011-08-30T04:09:21Z</time>
      </trkpt>
      <trkpt lat="45.52904" lon="2.97351">
        <ele>813</ele>
        <time>2011-08-30T04:09:25Z</time>
      </trkpt>
      <trkpt lat="45.52805" lon="2.97251">
        <ele>826</ele>
        <time>2011-08-30T04:10:13Z</time>
      </trkpt>
      <trkpt lat="45.52755" lon="2.97217">
        <ele>827</ele>
        <time>2011-08-30T04:10:24Z</time>
      </trkpt>
      <trkpt lat="45.52622" lon="2.97097">
        <ele>832</ele>
        <time>2011-08-30T04:10:56Z</time>
      </trkpt>
      <trkpt lat="45.52526" lon="2.97024">
        <ele>830</ele>
        <time>2011-08-30T04:11:10Z</time>
      </trkpt>
      <trkpt lat="45.52436" lon="2.96893">
        <ele>835</ele>
        <time>2011-08-30T04:11:39Z</time>
      </trkpt>
      <trkpt lat="45.52427" lon="2.96876">
        <ele>836</ele>
        <time>2011-08-30T04:11:45Z</time>
      </trkpt>
      <trkpt lat="45.52419" lon="2.96846">
        <ele>838</ele>
        <time>2011-08-30T04:11:54Z</time>
      </trkpt>
      <trkpt lat="45.52417" lon="2.96667">
        <ele>852</ele>
        <time>2011-08-30T04:12:42Z</time>
      </trkpt>
      <trkpt lat="45.52399" lon="2.96617">
        <ele>849</ele>
        <time>2011-08-30T04:12:47Z</time>
      </trkpt>
      <trkpt lat="45.52367" lon="2.96575">
        <ele>846</ele>
        <time>2011-08-30T04:12:53Z</time>
      </trkpt>
      <trkpt lat="45.52354" lon="2.96549">
        <ele>845</ele>
        <time>2011-08-30T04:12:56Z</time>
      </trkpt>
      <trkpt lat="45.52337" lon="2.96427">
        <ele>849</ele>
        <time>2011-08-30T04:13:19Z</time>
      </trkpt>
      <trkpt lat="45.52341" lon="2.96389">
        <ele>851</ele>
        <time>2011-08-30T04:13:26Z</time>
      </trkpt>
      <trkpt lat="45.52366" lon="2.96319">
        <ele>859</ele>
        <time>2011-08-30T04:13:53Z</time>
      </trkpt>
      <trkpt lat="45.52371" lon="2.96286">
        <ele>862</ele>
        <time>2011-08-30T04:14:04Z</time>
      </trkpt>
      <trkpt lat="45.5237" lon="2.96235">
        <ele>868</ele>
        <time>2011-08-30T04:14:22Z</time>
      </trkpt>
      <trkpt lat="45.52366" lon="2.9621">
        <ele>866</ele>
        <time>2011-08-30T04:14:24Z</time>
      </trkpt>
      <trkpt lat="45.52346" lon="2.96158">
        <ele>864</ele>
        <time>2011-08-30T04:14:30Z</time>
      </trkpt>
      <trkpt lat="45.52337" lon="2.96113">
        <ele>862</ele>
        <time>2011-08-30T04:14:34Z</time>
      </trkpt>
      <trkpt lat="45.52334" lon="2.96065">
        <ele>864</ele>
        <time>2011-08-30T04:14:44Z</time>
      </trkpt>
      <trkpt lat="45.52339" lon="2.96017">
        <ele>866</ele>
        <time>2011-08-30T04:14:53Z</time>
      </trkpt>
      <trkpt lat="45.52336" lon="2.9593">
        <ele>870</ele>
        <time>2011-08-30T04:15:10Z</time>
      </trkpt>
      <trkpt lat="45.52338" lon="2.95893">
        <ele>872</ele>
        <time>2011-08-30T04:15:20Z</time>
      </trkpt>
      <trkpt lat="45.5236" lon="2.95761">
        <ele>881</ele>
        <time>2011-08-30T04:15:53Z</time>
      </trkpt>
      <trkpt lat="45.5237" lon="2.9572">
        <ele>883</ele>
        <time>2011-08-30T04:16:03Z</time>
      </trkpt>
      <trkpt lat="45.52387" lon="2.95674">
        <ele>886</ele>
        <time>2011-08-30T04:16:15Z</time>
      </trkpt>
      <trkpt lat="45.5244" lon="2.9557">
        <ele>894</ele>
        <time>2011-08-30T04:16:45Z</time>
      </trkpt>
      <trkpt lat="45.52452" lon="2.95534">
        <ele>896</ele>
        <time>2011-08-30T04:16:54Z</time>
      </trkpt>
      <trkpt lat="45.52454" lon="2.95513">
        <ele>897</ele>
        <time>2011-08-30T04:16:59Z</time>
      </trkpt>
      <trkpt lat="45.52447" lon="2.9542">
        <ele>903</ele>
        <time>2011-08-30T04:17:21Z</time>
      </trkpt>
      <trkpt lat="45.52436" lon="2.95381">
        <ele>904</ele>
        <time>2011-08-30T04:17:28Z</time>
      </trkpt>
      <trkpt lat="45.52412" lon="2.95337">
        <ele>905</ele>
        <time>2011-08-30T04:17:37Z</time>
      </trkpt>
      <trkpt lat="45.52398" lon="2.95299">
        <ele>907</ele>
        <time>2011-08-30T04:17:44Z</time>
      </trkpt>
      <trkpt lat="45.52387" lon="2.95251">
        <ele>909</ele>
        <time>2011-08-30T04:17:56Z</time>
      </trkpt>
      <trkpt lat="45.5238" lon="2.95198">
        <ele>913</ele>
        <time>2011-08-30T04:18:09Z</time>
      </trkpt>
      <trkpt lat="45.52382" lon="2.95133">
        <ele>917</ele>
        <time>2011-08-30T04:18:24Z</time>
      </trkpt>
      <trkpt lat="45.52389" lon="2.951">
        <ele>919</ele>
        <time>2011-08-30T04:18:33Z</time>
      </trkpt>
      <trkpt lat="45.52411" lon="2.95033">
        <ele>924</ele>
        <time>2011-08-30T04:18:53Z</time>
      </trkpt>
      <trkpt lat="45.52412" lon="2.95004">
        <ele>927</ele>
        <time>2011-08-30T04:19:01Z</time>
      </trkpt>
      <trkpt lat="45.52406" lon="2.94973">
        <ele>927</ele>
        <time>2011-08-30T04:19:05Z</time>
      </trkpt>
      <trkpt lat="45.52393" lon="2.94947">
        <ele>928</ele>
        <time>2011-08-30T04:19:10Z</time>
      </trkpt>
      <trkpt lat="45.52345" lon="2.94886">
        <ele>930</ele>
        <time>2011-08-30T04:19:23Z</time>
      </trkpt>
      <trkpt lat="45.52305" lon="2.94801">
        <ele>934</ele>
        <time>2011-08-30T04:19:44Z</time>
      </trkpt>
      <trkpt lat="45.52287" lon="2.9476">
        <ele>937</ele>
        <time>2011-08-30T04:19:53Z</time>
      </trkpt>
      <trkpt lat="45.52265" lon="2.94671">
        <ele>938</ele>
        <time>2011-08-30T04:20:06Z</time>
      </trkpt>
      <trkpt lat="45.52253" lon="2.94641">
        <ele>939</ele>
        <time>2011-08-30T04:20:10Z</time>
      </trkpt>
      <trkpt lat="45.52097" lon="2.94405">
        <ele>953</ele>
        <time>2011-08-30T04:21:14Z</time>
      </trkpt>
      <trkpt lat="45.52065" lon="2.94369">
        <ele>950</ele>
        <time>2011-08-30T04:21:20Z</time>
      </trkpt>
      <trkpt lat="45.52033" lon="2.9435">
        <ele>949</ele>
        <time>2011-08-30T04:21:24Z</time>
      </trkpt>
      <trkpt lat="45.52007" lon="2.94345">
        <ele>948</ele>
        <time>2011-08-30T04:21:28Z</time>
      </trkpt>
      <trkpt lat="45.51983" lon="2.94347">
        <ele>948</ele>
        <time>2011-08-30T04:21:31Z</time>
      </trkpt>
      <trkpt lat="45.51957" lon="2.94356">
        <ele>948</ele>
        <time>2011-08-30T04:21:35Z</time>
      </trkpt>
      <trkpt lat="45.51891" lon="2.94399">
        <ele>948</ele>
        <time>2011-08-30T04:21:44Z</time>
      </trkpt>
      <trkpt lat="45.51853" lon="2.94409">
        <ele>952</ele>
        <time>2011-08-30T04:22:01Z</time>
      </trkpt>
      <trkpt lat="45.51818" lon="2.94406">
        <ele>956</ele>
        <time>2011-08-30T04:22:16Z</time>
      </trkpt>
      <trkpt lat="45.51787" lon="2.94389">
        <ele>961</ele>
        <time>2011-08-30T04:22:30Z</time>
      </trkpt>
      <trkpt lat="45.51766" lon="2.9437">
        <ele>962</ele>
        <time>2011-08-30T04:22:37Z</time>
      </trkpt>
      <trkpt lat="45.51658" lon="2.94231">
        <ele>973</ele>
        <time>2011-08-30T04:23:21Z</time>
      </trkpt>
      <trkpt lat="45.51637" lon="2.94194">
        <ele>974</ele>
        <time>2011-08-30T04:23:29Z</time>
      </trkpt>
      <trkpt lat="45.51619" lon="2.94147">
        <ele>976</ele>
        <time>2011-08-30T04:23:38Z</time>
      </trkpt>
      <trkpt lat="45.516" lon="2.94056">
        <ele>979</ele>
        <time>2011-08-30T04:23:54Z</time>
      </trkpt>
      <trkpt lat="45.51582" lon="2.9399">
        <ele>981</ele>
        <time>2011-08-30T04:24:07Z</time>
      </trkpt>
      <trkpt lat="45.51568" lon="2.93945">
        <ele>983</ele>
        <time>2011-08-30T04:24:15Z</time>
      </trkpt>
      <trkpt lat="45.51547" lon="2.93901">
        <ele>985</ele>
        <time>2011-08-30T04:24:25Z</time>
      </trkpt>
      <trkpt lat="45.5155" lon="2.93887">
        <ele>985</ele>
        <time>2011-08-30T04:24:27Z</time>
      </trkpt>
      <trkpt lat="45.51545" lon="2.93879">
        <ele>985</ele>
        <time>2011-08-30T04:24:29Z</time>
      </trkpt>
      <trkpt lat="45.51534" lon="2.93881">
        <ele>986</ele>
        <time>2011-08-30T04:24:32Z</time>
      </trkpt>
      <trkpt lat="45.51474" lon="2.93788">
        <ele>990</ele>
        <time>2011-08-30T04:24:52Z</time>
      </trkpt>
      <trkpt lat="45.514" lon="2.9365">
        <ele>1000</ele>
        <time>2011-08-30T04:25:33Z</time>
      </trkpt>
      <trkpt lat="45.51365" lon="2.936">
        <ele>1002</ele>
        <time>2011-08-30T04:25:46Z</time>
      </trkpt>
      <trkpt lat="45.51362" lon="2.93584">
        <ele>1003</ele>
        <time>2011-08-30T04:25:50Z</time>
      </trkpt>
      <trkpt lat="45.51365" lon="2.93559">
        <ele>1004</ele>
        <time>2011-08-30T04:25:54Z</time>
      </trkpt>
      <trkpt lat="45.51391" lon="2.93517">
        <ele>1007</ele>
        <time>2011-08-30T04:26:05Z</time>
      </trkpt>
      <trkpt lat="45.51394" lon="2.93504">
        <ele>1007</ele>
        <time>2011-08-30T04:26:08Z</time>
      </trkpt>
      <trkpt lat="45.51393" lon="2.93489">
        <ele>1008</ele>
        <time>2011-08-30T04:26:11Z</time>
      </trkpt>
      <trkpt lat="45.51386" lon="2.93474">
        <ele>1008</ele>
        <time>2011-08-30T04:26:14Z</time>
      </trkpt>
      <trkpt lat="45.51373" lon="2.93485">
        <ele>1009</ele>
        <time>2011-08-30T04:26:18Z</time>
      </trkpt>
      <trkpt lat="45.51338" lon="2.93532">
        <ele>1012</ele>
        <time>2011-08-30T04:26:31Z</time>
      </trkpt>
      <trkpt lat="45.51316" lon="2.93574">
        <ele>1014</ele>
        <time>2011-08-30T04:26:41Z</time>
      </trkpt>
      <trkpt lat="45.51306" lon="2.93584">
        <ele>1015</ele>
        <time>2011-08-30T04:26:44Z</time>
      </trkpt>
      <trkpt lat="45.51287" lon="2.9358">
        <ele>1017</ele>
        <time>2011-08-30T04:26:51Z</time>
      </trkpt>
      <trkpt lat="45.51272" lon="2.93566">
        <ele>1018</ele>
        <time>2011-08-30T04:26:58Z</time>
      </trkpt>
      <trkpt lat="45.51261" lon="2.93549">
        <ele>1020</ele>
        <time>2011-08-30T04:27:04Z</time>
      </trkpt>
      <trkpt lat="45.5124" lon="2.93498">
        <ele>1024</ele>
        <time>2011-08-30T04:27:20Z</time>
      </trkpt>
      <trkpt lat="45.51222" lon="2.93485">
        <ele>1027</ele>
        <time>2011-08-30T04:27:28Z</time>
      </trkpt>
      <trkpt lat="45.51214" lon="2.935">
        <ele>1026</ele>
        <time>2011-08-30T04:27:30Z</time>
      </trkpt>
    </trkseg>
  </trk>
</gpx>